Time,TemperatureF,DewpointF,PressureIn,WindDirection,WindDirectionDegrees,WindSpeedMPH,WindSpeedGustMPH,Humidity,HourlyPrecipIn,Conditions,Clouds,dailyrainin,SoftwareType,DateUTC
2013-07-14 00:01:00,67.4,64.4,30.08,ESE,103,0.0,0.0,90,0.00,,,0.00,Wunderground v.1.15,2013-07-14 04:01:00,
2013-07-14 00:02:00,67.4,64.4,30.08,ESE,103,0.0,0.0,90,0.00,,,0.00,Wunderground v.1.15,2013-07-14 04:02:00,
2013-07-14 00:03:00,67.4,64.4,30.08,ESE,103,0.0,0.0,90,0.00,,,0.00,Wunderground v.1.15,2013-07-14 04:03:00,
2013-07-14 00:06:00,67.3,64.3,30.08,ESE,103,0.0,0.0,90,0.00,,,0.00,Wunderground v.1.15,2013-07-14 04:06:00,
2013-07-14 00:08:00,67.3,64.6,30.08,ESE,103,0.0,0.0,91,0.00,,,0.00,Wunderground v.1.15,2013-07-14 04:08:00,
2013-07-14 00:09:00,67.3,64.6,30.08,ESE,103,0.0,0.0,91,0.00,,,0.00,Wunderground v.1.15,2013-07-14 04:09:00,
2013-07-14 00:10:00,67.3,64.6,30.08,ESE,103,0.0,0.0,91,0.00,,,0.00,Wunderground v.1.15,2013-07-14 04:10:00,
2013-07-14 00:11:00,67.3,64.6,30.08,ESE,103,0.0,0.0,91,0.00,,,0.00,Wunderground v.1.15,2013-07-14 04:11:00,
2013-07-14 00:16:00,67.1,64.4,30.08,ESE,103,0.0,0.0,91,0.00,,,0.00,Wunderground v.1.15,2013-07-14 04:16:00,
2013-07-14 00:17:00,67.1,64.4,30.08,ESE,103,0.0,0.0,91,0.00,,,0.00,Wunderground v.1.15,2013-07-14 04:17:00,
2013-07-14 00:19:00,67.1,64.4,30.08,ESE,103,0.0,0.0,91,0.00,,,0.00,Wunderground v.1.15,2013-07-14 04:19:00,
2013-07-14 00:21:00,67.1,64.4,30.08,ESE,103,0.0,0.0,91,0.00,,,0.00,Wunderground v.1.15,2013-07-14 04:21:00,
2013-07-14 00:23:00,67.1,64.4,30.08,ESE,103,0.0,0.0,91,0.00,,,0.00,Wunderground v.1.15,2013-07-14 04:23:00,
2013-07-14 00:24:00,67.1,64.4,30.08,ESE,103,0.0,0.0,91,0.00,,,0.00,Wunderground v.1.15,2013-07-14 04:24:00,
2013-07-14 00:27:00,67.1,64.4,30.08,ESE,103,0.0,0.0,91,0.00,,,0.00,Wunderground v.1.15,2013-07-14 04:27:00,
2013-07-14 00:29:00,66.9,64.2,30.08,ESE,103,0.0,0.0,91,0.00,,,0.00,Wunderground v.1.15,2013-07-14 04:29:00,
2013-07-14 00:31:00,66.9,64.2,30.08,ESE,103,0.0,0.0,91,0.00,,,0.00,Wunderground v.1.15,2013-07-14 04:31:00,
2013-07-14 00:32:00,66.9,64.2,30.08,ESE,103,0.0,0.0,91,0.00,,,0.00,Wunderground v.1.15,2013-07-14 04:32:00,
2013-07-14 00:34:00,66.9,64.2,30.08,ESE,103,0.0,0.0,91,0.00,,,0.00,Wunderground v.1.15,2013-07-14 04:34:00,
2013-07-14 00:36:00,66.9,64.2,30.08,ESE,103,0.0,0.0,91,0.00,,,0.00,Wunderground v.1.15,2013-07-14 04:36:00,
2013-07-14 00:37:00,66.9,64.2,30.08,ESE,103,0.0,0.0,91,0.00,,,0.00,Wunderground v.1.15,2013-07-14 04:37:00,
2013-07-14 00:41:00,66.8,64.1,30.08,ESE,103,0.0,0.0,91,0.00,,,0.00,Wunderground v.1.15,2013-07-14 04:41:00,
2013-07-14 00:42:00,66.8,64.1,30.08,ESE,103,0.0,0.0,91,0.00,,,0.00,Wunderground v.1.15,2013-07-14 04:42:00,
2013-07-14 00:47:00,66.8,64.1,30.08,ESE,103,0.0,0.0,91,0.00,,,0.00,Wunderground v.1.15,2013-07-14 04:47:00,
2013-07-14 00:48:00,66.8,64.1,30.08,ESE,103,0.0,0.0,91,0.00,,,0.00,Wunderground v.1.15,2013-07-14 04:48:00,
2013-07-14 00:49:00,66.8,64.1,30.08,ESE,103,0.0,0.0,91,0.00,,,0.00,Wunderground v.1.15,2013-07-14 04:49:00,
2013-07-14 00:52:00,66.6,63.9,30.08,ESE,103,0.0,0.0,91,0.00,,,0.00,Wunderground v.1.15,2013-07-14 04:52:00,
2013-07-14 00:53:00,66.6,63.9,30.08,ESE,103,0.0,0.0,91,0.00,,,0.00,Wunderground v.1.15,2013-07-14 04:53:00,
2013-07-14 00:55:00,66.5,63.8,30.08,ESE,103,0.0,0.0,91,0.00,,,0.00,Wunderground v.1.15,2013-07-14 04:55:00,
2013-07-14 00:56:00,66.5,63.8,30.08,ESE,103,0.0,0.0,91,0.00,,,0.00,Wunderground v.1.15,2013-07-14 04:56:00,
2013-07-14 00:57:00,66.5,63.8,30.08,ESE,103,0.0,0.0,91,0.00,,,0.00,Wunderground v.1.15,2013-07-14 04:57:00,
2013-07-14 01:00:00,66.1,63.4,30.08,ESE,103,0.0,0.0,91,0.00,,,0.00,Wunderground v.1.15,2013-07-14 05:00:00,
2013-07-14 01:01:00,66.1,63.4,30.08,ESE,103,0.0,0.0,91,0.00,,,0.00,Wunderground v.1.15,2013-07-14 05:01:00,
2013-07-14 01:02:00,66.1,63.4,30.08,ESE,103,0.0,0.0,91,0.00,,,0.00,Wunderground v.1.15,2013-07-14 05:02:00,
2013-07-14 01:03:00,66.1,63.4,30.08,ESE,103,0.0,0.0,91,0.00,,,0.00,Wunderground v.1.15,2013-07-14 05:03:00,
2013-07-14 01:06:00,66.0,63.6,30.08,ESE,103,0.0,0.0,92,0.00,,,0.00,Wunderground v.1.15,2013-07-14 05:06:00,
2013-07-14 01:08:00,66.0,63.6,30.08,ESE,103,0.0,0.0,92,0.00,,,0.00,Wunderground v.1.15,2013-07-14 05:08:00,
2013-07-14 01:10:00,66.0,63.6,30.08,ESE,103,0.0,0.0,92,0.00,,,0.00,Wunderground v.1.15,2013-07-14 05:10:00,
2013-07-14 01:12:00,65.8,63.4,30.08,ESE,103,0.0,0.0,92,0.00,,,0.00,Wunderground v.1.15,2013-07-14 05:12:00,
2013-07-14 01:14:00,65.8,63.4,30.08,ESE,103,0.0,0.0,92,0.00,,,0.00,Wunderground v.1.15,2013-07-14 05:14:00,
2013-07-14 01:15:00,65.8,63.4,30.08,ESE,103,0.0,0.0,92,0.00,,,0.00,Wunderground v.1.15,2013-07-14 05:15:00,
2013-07-14 01:17:00,65.8,63.4,30.08,ESE,103,0.0,0.0,92,0.00,,,0.00,Wunderground v.1.15,2013-07-14 05:17:00,
2013-07-14 01:20:00,65.8,63.4,30.08,ESE,103,0.0,0.0,92,0.00,,,0.00,Wunderground v.1.15,2013-07-14 05:20:00,
2013-07-14 01:22:00,65.8,63.4,30.08,ESE,103,0.0,0.0,92,0.00,,,0.00,Wunderground v.1.15,2013-07-14 05:22:00,
2013-07-14 01:24:00,65.8,63.4,30.08,ESE,103,0.0,0.0,92,0.00,,,0.00,Wunderground v.1.15,2013-07-14 05:24:00,
2013-07-14 01:25:00,65.8,63.4,30.08,ESE,103,0.0,0.0,92,0.00,,,0.00,Wunderground v.1.15,2013-07-14 05:25:00,
2013-07-14 01:27:00,65.8,63.4,30.08,ESE,103,0.0,0.0,92,0.00,,,0.00,Wunderground v.1.15,2013-07-14 05:27:00,
2013-07-14 01:28:00,66.0,63.6,30.08,ESE,103,0.0,0.0,92,0.00,,,0.00,Wunderground v.1.15,2013-07-14 05:28:00,
2013-07-14 01:31:00,66.0,63.9,30.08,ESE,103,0.0,0.0,93,0.00,,,0.00,Wunderground v.1.15,2013-07-14 05:31:00,
2013-07-14 01:32:00,66.0,63.6,30.08,ESE,103,0.0,0.0,92,0.00,,,0.00,Wunderground v.1.15,2013-07-14 05:32:00,
2013-07-14 01:33:00,66.0,63.6,30.08,ESE,103,0.0,0.0,92,0.00,,,0.00,Wunderground v.1.15,2013-07-14 05:33:00,
2013-07-14 01:34:00,66.0,63.6,30.08,ESE,103,0.0,0.0,92,0.00,,,0.00,Wunderground v.1.15,2013-07-14 05:34:00,
2013-07-14 01:35:00,66.0,63.6,30.08,ESE,103,0.0,0.0,92,0.00,,,0.00,Wunderground v.1.15,2013-07-14 05:35:00,
2013-07-14 01:38:00,66.0,63.9,30.08,ESE,103,0.0,0.0,93,0.00,,,0.00,Wunderground v.1.15,2013-07-14 05:38:00,
2013-07-14 01:39:00,66.0,63.9,30.08,ESE,103,0.0,0.0,93,0.00,,,0.00,Wunderground v.1.15,2013-07-14 05:39:00,
2013-07-14 01:40:00,66.0,63.9,30.08,ESE,103,0.0,0.0,93,0.00,,,0.00,Wunderground v.1.15,2013-07-14 05:40:00,
2013-07-14 01:43:00,66.0,63.9,30.08,ESE,103,0.0,0.0,93,0.00,,,0.00,Wunderground v.1.15,2013-07-14 05:43:00,
2013-07-14 01:45:00,66.0,63.9,30.08,ESE,103,0.0,0.0,93,0.00,,,0.00,Wunderground v.1.15,2013-07-14 05:45:00,
2013-07-14 01:46:00,66.0,63.9,30.08,ESE,103,0.0,0.0,93,0.00,,,0.00,Wunderground v.1.15,2013-07-14 05:46:00,
2013-07-14 01:48:00,66.0,63.9,30.08,ESE,103,0.0,0.0,93,0.00,,,0.00,Wunderground v.1.15,2013-07-14 05:48:00,
2013-07-14 01:50:00,66.0,63.9,30.08,ESE,103,0.0,0.0,93,0.00,,,0.00,Wunderground v.1.15,2013-07-14 05:50:00,
2013-07-14 01:52:00,65.8,63.7,30.08,ESE,103,0.0,0.0,93,0.00,,,0.00,Wunderground v.1.15,2013-07-14 05:52:00,
2013-07-14 01:53:00,65.8,63.7,30.08,ESE,103,0.0,0.0,93,0.00,,,0.00,Wunderground v.1.15,2013-07-14 05:53:00,
2013-07-14 01:54:00,65.8,63.7,30.08,ESE,103,0.0,0.0,93,0.00,,,0.00,Wunderground v.1.15,2013-07-14 05:54:00,
2013-07-14 01:57:00,65.8,63.4,30.08,ESE,103,0.0,0.0,92,0.00,,,0.00,Wunderground v.1.15,2013-07-14 05:57:00,
2013-07-14 01:58:00,65.8,63.7,30.08,ESE,103,0.0,0.0,93,0.00,,,0.00,Wunderground v.1.15,2013-07-14 05:58:00,
2013-07-14 02:00:00,65.8,63.7,30.08,ESE,103,0.0,0.0,93,0.00,,,0.00,Wunderground v.1.15,2013-07-14 06:00:00,
2013-07-14 02:01:00,65.8,63.7,30.08,ESE,103,0.0,0.0,93,0.00,,,0.00,Wunderground v.1.15,2013-07-14 06:01:00,
2013-07-14 02:02:00,65.8,63.7,30.08,ESE,103,0.0,0.0,93,0.00,,,0.00,Wunderground v.1.15,2013-07-14 06:02:00,
2013-07-14 02:03:00,65.8,63.7,30.08,ESE,103,0.0,0.0,93,0.00,,,0.00,Wunderground v.1.15,2013-07-14 06:03:00,
2013-07-14 02:07:00,65.8,63.4,30.08,ESE,103,0.0,0.0,92,0.00,,,0.00,Wunderground v.1.15,2013-07-14 06:07:00,
2013-07-14 02:09:00,65.8,63.4,30.08,ESE,103,0.0,0.0,92,0.00,,,0.00,Wunderground v.1.15,2013-07-14 06:09:00,
2013-07-14 02:11:00,65.8,63.4,30.08,ESE,103,0.0,0.0,92,0.00,,,0.00,Wunderground v.1.15,2013-07-14 06:11:00,
2013-07-14 02:16:00,65.7,63.3,30.08,ESE,103,0.0,0.0,92,0.00,,,0.00,Wunderground v.1.15,2013-07-14 06:16:00,
2013-07-14 02:17:00,65.7,63.3,30.08,ESE,103,0.0,0.0,92,0.00,,,0.00,Wunderground v.1.15,2013-07-14 06:17:00,
2013-07-14 02:18:00,65.7,63.3,30.08,ESE,103,0.0,0.0,92,0.00,,,0.00,Wunderground v.1.15,2013-07-14 06:18:00,
2013-07-14 02:19:00,65.7,63.3,30.08,ESE,103,0.0,0.0,92,0.00,,,0.00,Wunderground v.1.15,2013-07-14 06:19:00,
2013-07-14 02:22:00,65.7,63.3,30.08,ESE,103,0.0,0.0,92,0.00,,,0.00,Wunderground v.1.15,2013-07-14 06:22:00,
2013-07-14 02:23:00,65.7,63.3,30.08,ESE,103,0.0,0.0,92,0.00,,,0.00,Wunderground v.1.15,2013-07-14 06:23:00,
2013-07-14 02:25:00,65.7,63.3,30.08,ESE,103,0.0,0.0,92,0.00,,,0.00,Wunderground v.1.15,2013-07-14 06:25:00,
2013-07-14 02:27:00,65.7,63.3,30.08,ESE,103,0.0,0.0,92,0.00,,,0.00,Wunderground v.1.15,2013-07-14 06:27:00,
2013-07-14 02:28:00,65.7,63.3,30.08,ESE,103,0.0,0.0,92,0.00,,,0.00,Wunderground v.1.15,2013-07-14 06:28:00,
2013-07-14 02:31:00,65.5,63.1,30.08,ESE,103,0.0,0.0,92,0.00,,,0.00,Wunderground v.1.15,2013-07-14 06:31:00,
2013-07-14 02:33:00,65.5,63.1,30.08,ESE,103,0.0,0.0,92,0.00,,,0.00,Wunderground v.1.15,2013-07-14 06:33:00,
2013-07-14 02:34:00,65.5,63.4,30.08,ESE,103,0.0,0.0,93,0.00,,,0.00,Wunderground v.1.15,2013-07-14 06:34:00,
2013-07-14 02:37:00,65.5,63.1,30.08,ESE,103,0.0,0.0,92,0.00,,,0.00,Wunderground v.1.15,2013-07-14 06:37:00,
2013-07-14 02:39:00,65.5,63.4,30.08,ESE,103,0.0,0.0,93,0.00,,,0.00,Wunderground v.1.15,2013-07-14 06:39:00,
2013-07-14 02:40:00,65.5,63.4,30.08,ESE,103,0.0,0.0,93,0.00,,,0.00,Wunderground v.1.15,2013-07-14 06:40:00,
2013-07-14 02:42:00,65.5,63.4,30.08,ESE,103,0.0,0.0,93,0.00,,,0.00,Wunderground v.1.15,2013-07-14 06:42:00,
2013-07-14 02:43:00,65.3,63.2,30.08,ESE,103,0.0,0.0,93,0.00,,,0.00,Wunderground v.1.15,2013-07-14 06:43:00,
2013-07-14 02:45:00,65.3,63.2,30.08,ESE,103,0.0,0.0,93,0.00,,,0.00,Wunderground v.1.15,2013-07-14 06:45:00,
2013-07-14 02:47:00,65.3,63.2,30.08,ESE,103,0.0,0.0,93,0.00,,,0.00,Wunderground v.1.15,2013-07-14 06:47:00,
2013-07-14 02:48:00,65.2,62.8,30.08,ESE,103,0.0,0.0,92,0.00,,,0.00,Wunderground v.1.15,2013-07-14 06:48:00,
2013-07-14 02:51:00,65.2,63.1,30.08,ESE,103,0.0,0.0,93,0.00,,,0.00,Wunderground v.1.15,2013-07-14 06:51:00,
2013-07-14 02:54:00,65.0,62.9,30.08,ESE,103,0.0,0.0,93,0.00,,,0.00,Wunderground v.1.15,2013-07-14 06:54:00,
2013-07-14 02:56:00,65.0,62.9,30.08,ESE,103,0.0,0.0,93,0.00,,,0.00,Wunderground v.1.15,2013-07-14 06:56:00,
2013-07-14 03:00:00,65.0,62.9,30.08,ESE,103,0.0,0.0,93,0.00,,,0.00,Wunderground v.1.15,2013-07-14 07:00:00,
2013-07-14 03:01:00,65.0,62.9,30.08,ESE,103,0.0,0.0,93,0.00,,,0.00,Wunderground v.1.15,2013-07-14 07:01:00,
2013-07-14 03:03:00,65.0,62.9,30.08,ESE,103,0.0,0.0,93,0.00,,,0.00,Wunderground v.1.15,2013-07-14 07:03:00,
2013-07-14 03:06:00,65.0,62.9,30.08,ESE,103,0.0,0.0,93,0.00,,,0.00,Wunderground v.1.15,2013-07-14 07:06:00,
2013-07-14 03:08:00,65.0,62.9,30.08,ESE,103,0.0,0.0,93,0.00,,,0.00,Wunderground v.1.15,2013-07-14 07:08:00,
2013-07-14 03:09:00,65.0,62.9,30.08,ESE,103,0.0,0.0,93,0.00,,,0.00,Wunderground v.1.15,2013-07-14 07:09:00,
2013-07-14 03:11:00,65.0,62.9,30.08,ESE,103,0.0,0.0,93,0.00,,,0.00,Wunderground v.1.15,2013-07-14 07:11:00,
2013-07-14 03:13:00,65.0,62.9,30.08,ESE,103,0.0,0.0,93,0.00,,,0.00,Wunderground v.1.15,2013-07-14 07:13:00,
2013-07-14 03:15:00,65.0,62.9,30.08,ESE,103,0.0,0.0,93,0.00,,,0.00,Wunderground v.1.15,2013-07-14 07:15:00,
2013-07-14 03:17:00,64.8,62.7,30.08,ESE,103,0.0,0.0,93,0.00,,,0.00,Wunderground v.1.15,2013-07-14 07:17:00,
2013-07-14 03:19:00,64.8,62.7,30.08,ESE,103,0.0,0.0,93,0.00,,,0.00,Wunderground v.1.15,2013-07-14 07:19:00,
2013-07-14 03:20:00,64.8,62.7,30.08,ESE,103,0.0,0.0,93,0.00,,,0.00,Wunderground v.1.15,2013-07-14 07:20:00,
2013-07-14 03:21:00,64.7,62.6,30.08,ESE,103,0.0,0.0,93,0.00,,,0.00,Wunderground v.1.15,2013-07-14 07:21:00,
2013-07-14 03:22:00,64.7,62.6,30.08,ESE,103,0.0,0.0,93,0.00,,,0.00,Wunderground v.1.15,2013-07-14 07:22:00,
2013-07-14 03:25:00,64.5,62.4,30.08,ESE,103,0.0,0.0,93,0.00,,,0.00,Wunderground v.1.15,2013-07-14 07:25:00,
2013-07-14 03:26:00,64.5,62.4,30.08,ESE,103,0.0,0.0,93,0.00,,,0.00,Wunderground v.1.15,2013-07-14 07:26:00,
2013-07-14 03:27:00,64.5,62.4,30.08,ESE,103,0.0,0.0,93,0.00,,,0.00,Wunderground v.1.15,2013-07-14 07:27:00,
2013-07-14 03:28:00,64.5,62.4,30.08,ESE,103,0.0,0.0,93,0.00,,,0.00,Wunderground v.1.15,2013-07-14 07:28:00,
2013-07-14 03:31:00,64.5,62.4,30.08,ESE,103,0.0,0.0,93,0.00,,,0.00,Wunderground v.1.15,2013-07-14 07:31:00,
2013-07-14 03:32:00,64.5,62.4,30.08,ESE,103,0.0,0.0,93,0.00,,,0.00,Wunderground v.1.15,2013-07-14 07:32:00,
2013-07-14 03:34:00,64.5,62.4,30.08,ESE,103,0.0,0.0,93,0.00,,,0.00,Wunderground v.1.15,2013-07-14 07:34:00,
2013-07-14 03:35:00,64.5,62.4,30.08,ESE,103,0.0,0.0,93,0.00,,,0.00,Wunderground v.1.15,2013-07-14 07:35:00,
2013-07-14 03:37:00,64.5,62.4,30.08,ESE,103,0.0,0.0,93,0.00,,,0.00,Wunderground v.1.15,2013-07-14 07:37:00,
2013-07-14 03:41:00,64.5,62.4,30.08,ESE,103,0.0,0.0,93,0.00,,,0.00,Wunderground v.1.15,2013-07-14 07:41:00,
2013-07-14 03:42:00,64.5,62.4,30.08,ESE,103,0.0,0.0,93,0.00,,,0.00,Wunderground v.1.15,2013-07-14 07:42:00,
2013-07-14 03:43:00,64.5,62.4,30.08,ESE,103,0.0,0.0,93,0.00,,,0.00,Wunderground v.1.15,2013-07-14 07:43:00,
2013-07-14 03:45:00,64.5,62.4,30.08,ESE,103,0.0,0.0,93,0.00,,,0.00,Wunderground v.1.15,2013-07-14 07:45:00,
2013-07-14 03:47:00,64.5,62.4,30.08,ESE,103,0.0,0.0,93,0.00,,,0.00,Wunderground v.1.15,2013-07-14 07:47:00,
2013-07-14 03:48:00,64.5,62.4,30.08,ESE,103,0.0,0.0,93,0.00,,,0.00,Wunderground v.1.15,2013-07-14 07:48:00,
2013-07-14 03:49:00,64.5,62.4,30.08,ESE,103,0.0,0.0,93,0.00,,,0.00,Wunderground v.1.15,2013-07-14 07:49:00,
2013-07-14 03:50:00,64.5,62.4,30.08,ESE,103,0.0,0.0,93,0.00,,,0.00,Wunderground v.1.15,2013-07-14 07:50:00,
2013-07-14 03:53:00,64.5,62.4,30.08,ESE,103,0.0,0.0,93,0.00,,,0.00,Wunderground v.1.15,2013-07-14 07:53:00,
2013-07-14 03:58:00,64.5,62.4,30.08,ESE,103,0.0,0.0,93,0.00,,,0.00,Wunderground v.1.15,2013-07-14 07:58:00,
2013-07-14 03:59:00,64.5,62.4,30.08,ESE,103,0.0,0.0,93,0.00,,,0.00,Wunderground v.1.15,2013-07-14 07:59:00,
2013-07-14 04:01:00,64.5,62.4,30.08,ESE,103,0.0,0.0,93,0.00,,,0.00,Wunderground v.1.15,2013-07-14 08:01:00,
2013-07-14 04:02:00,64.5,62.4,30.08,ESE,103,0.0,0.0,93,0.00,,,0.00,Wunderground v.1.15,2013-07-14 08:02:00,
2013-07-14 04:04:00,64.5,62.4,30.08,ESE,103,0.0,0.0,93,0.00,,,0.00,Wunderground v.1.15,2013-07-14 08:04:00,
2013-07-14 04:08:00,64.5,62.7,30.08,ESE,103,0.0,0.0,94,0.00,,,0.00,Wunderground v.1.15,2013-07-14 08:08:00,
2013-07-14 04:10:00,64.5,62.7,30.08,ESE,103,0.0,0.0,94,0.00,,,0.00,Wunderground v.1.15,2013-07-14 08:10:00,
2013-07-14 04:12:00,64.4,62.3,30.08,ESE,103,0.0,0.0,93,0.00,,,0.00,Wunderground v.1.15,2013-07-14 08:12:00,
2013-07-14 04:13:00,64.4,62.3,30.08,ESE,103,0.0,0.0,93,0.00,,,0.00,Wunderground v.1.15,2013-07-14 08:13:00,
2013-07-14 04:17:00,64.4,62.6,30.08,ESE,103,0.0,0.0,94,0.00,,,0.00,Wunderground v.1.15,2013-07-14 08:17:00,
2013-07-14 04:18:00,64.4,62.6,30.08,ESE,103,0.0,0.0,94,0.00,,,0.00,Wunderground v.1.15,2013-07-14 08:18:00,
2013-07-14 04:19:00,64.4,62.3,30.08,ESE,103,0.0,0.0,93,0.00,,,0.00,Wunderground v.1.15,2013-07-14 08:19:00,
2013-07-14 04:20:00,64.4,62.3,30.08,ESE,103,0.0,0.0,93,0.00,,,0.00,Wunderground v.1.15,2013-07-14 08:20:00,
2013-07-14 04:24:00,64.2,62.1,30.08,ESE,103,0.0,0.0,93,0.00,,,0.00,Wunderground v.1.15,2013-07-14 08:24:00,
2013-07-14 04:25:00,64.2,62.1,30.08,ESE,103,0.0,0.0,93,0.00,,,0.00,Wunderground v.1.15,2013-07-14 08:25:00,
2013-07-14 04:28:00,64.0,61.9,30.08,ESE,103,0.0,0.0,93,0.00,,,0.00,Wunderground v.1.15,2013-07-14 08:28:00,
2013-07-14 04:29:00,64.0,61.9,30.08,ESE,103,0.0,0.0,93,0.00,,,0.00,Wunderground v.1.15,2013-07-14 08:29:00,
2013-07-14 04:31:00,64.0,61.9,30.08,ESE,103,0.0,0.0,93,0.00,,,0.00,Wunderground v.1.15,2013-07-14 08:31:00,
2013-07-14 04:32:00,64.0,61.9,30.08,ESE,103,0.0,0.0,93,0.00,,,0.00,Wunderground v.1.15,2013-07-14 08:32:00,
2013-07-14 04:34:00,64.0,61.9,30.08,ESE,103,0.0,0.0,93,0.00,,,0.00,Wunderground v.1.15,2013-07-14 08:34:00,
2013-07-14 04:37:00,63.9,62.1,30.08,ESE,103,0.0,0.0,94,0.00,,,0.00,Wunderground v.1.15,2013-07-14 08:37:00,
2013-07-14 04:40:00,64.0,62.2,30.08,ESE,103,0.0,0.0,94,0.00,,,0.00,Wunderground v.1.15,2013-07-14 08:40:00,
2013-07-14 04:42:00,64.0,62.2,30.08,ESE,103,0.0,0.0,94,0.00,,,0.00,Wunderground v.1.15,2013-07-14 08:42:00,
2013-07-14 04:43:00,64.0,62.2,30.08,ESE,103,0.0,0.0,94,0.00,,,0.00,Wunderground v.1.15,2013-07-14 08:43:00,
2013-07-14 04:46:00,64.0,62.2,30.08,ESE,103,0.0,0.0,94,0.00,,,0.00,Wunderground v.1.15,2013-07-14 08:46:00,
2013-07-14 04:48:00,64.0,62.2,30.08,ESE,103,0.0,0.0,94,0.00,,,0.00,Wunderground v.1.15,2013-07-14 08:48:00,
2013-07-14 04:49:00,64.0,62.2,30.08,ESE,103,0.0,0.0,94,0.00,,,0.00,Wunderground v.1.15,2013-07-14 08:49:00,
2013-07-14 04:51:00,64.0,62.2,30.08,ESE,103,0.0,0.0,94,0.00,,,0.00,Wunderground v.1.15,2013-07-14 08:51:00,
2013-07-14 04:54:00,64.0,62.2,30.08,ESE,103,0.0,0.0,94,0.00,,,0.00,Wunderground v.1.15,2013-07-14 08:54:00,
2013-07-14 04:55:00,64.0,62.2,30.08,ESE,103,0.0,0.0,94,0.00,,,0.00,Wunderground v.1.15,2013-07-14 08:55:00,
2013-07-14 04:56:00,64.0,62.2,30.08,ESE,103,0.0,0.0,94,0.00,,,0.00,Wunderground v.1.15,2013-07-14 08:56:00,
2013-07-14 04:57:00,64.0,62.2,30.08,ESE,103,0.0,0.0,94,0.00,,,0.00,Wunderground v.1.15,2013-07-14 08:57:00,
2013-07-14 05:00:00,64.0,62.2,30.08,ESE,103,0.0,0.0,94,0.00,,,0.00,Wunderground v.1.15,2013-07-14 09:00:00,
2013-07-14 05:01:00,64.0,62.2,30.08,ESE,103,0.0,0.0,94,0.00,,,0.00,Wunderground v.1.15,2013-07-14 09:01:00,
2013-07-14 05:02:00,64.0,62.2,30.08,ESE,103,0.0,0.0,94,0.00,,,0.00,Wunderground v.1.15,2013-07-14 09:02:00,
2013-07-14 05:07:00,64.0,62.2,30.08,ESE,103,0.0,0.0,94,0.00,,,0.00,Wunderground v.1.15,2013-07-14 09:07:00,
2013-07-14 05:08:00,64.0,62.2,30.08,ESE,103,0.0,0.0,94,0.00,,,0.00,Wunderground v.1.15,2013-07-14 09:08:00,
2013-07-14 05:09:00,64.0,62.2,30.08,ESE,103,0.0,0.0,94,0.00,,,0.00,Wunderground v.1.15,2013-07-14 09:09:00,
2013-07-14 05:13:00,63.9,62.1,30.08,ESE,103,0.0,0.0,94,0.00,,,0.00,Wunderground v.1.15,2013-07-14 09:13:00,
2013-07-14 05:14:00,63.9,62.1,30.08,ESE,103,0.0,0.0,94,0.00,,,0.00,Wunderground v.1.15,2013-07-14 09:14:00,
2013-07-14 05:15:00,63.9,62.1,30.08,ESE,103,0.0,0.0,94,0.00,,,0.00,Wunderground v.1.15,2013-07-14 09:15:00,
2013-07-14 05:17:00,63.9,62.1,30.08,ESE,103,0.0,0.0,94,0.00,,,0.00,Wunderground v.1.15,2013-07-14 09:17:00,
2013-07-14 05:19:00,63.9,62.1,30.08,ESE,103,0.0,0.0,94,0.00,,,0.00,Wunderground v.1.15,2013-07-14 09:19:00,
2013-07-14 05:20:00,63.9,62.1,30.08,ESE,103,0.0,0.0,94,0.00,,,0.00,Wunderground v.1.15,2013-07-14 09:20:00,
2013-07-14 05:21:00,63.9,62.1,30.08,ESE,103,0.0,0.0,94,0.00,,,0.00,Wunderground v.1.15,2013-07-14 09:21:00,
2013-07-14 05:25:00,63.9,62.1,30.08,ESE,103,0.0,0.0,94,0.00,,,0.00,Wunderground v.1.15,2013-07-14 09:25:00,
2013-07-14 05:26:00,63.9,62.1,30.08,ESE,103,0.0,0.0,94,0.00,,,0.00,Wunderground v.1.15,2013-07-14 09:26:00,
2013-07-14 05:27:00,63.9,62.1,30.08,ESE,103,0.0,0.0,94,0.00,,,0.00,Wunderground v.1.15,2013-07-14 09:27:00,
2013-07-14 05:28:00,63.9,62.1,30.08,ESE,103,0.0,0.0,94,0.00,,,0.00,Wunderground v.1.15,2013-07-14 09:28:00,
2013-07-14 05:30:00,63.9,62.1,30.09,ESE,103,0.0,0.0,94,0.00,,,0.00,Wunderground v.1.15,2013-07-14 09:30:00,
2013-07-14 05:32:00,63.9,62.1,30.09,ESE,103,0.0,0.0,94,0.00,,,0.00,Wunderground v.1.15,2013-07-14 09:32:00,
2013-07-14 05:35:00,63.9,62.1,30.09,ESE,103,0.0,0.0,94,0.00,,,0.00,Wunderground v.1.15,2013-07-14 09:35:00,
2013-07-14 05:37:00,63.9,62.1,30.09,ESE,103,0.0,0.0,94,0.00,,,0.00,Wunderground v.1.15,2013-07-14 09:37:00,
2013-07-14 05:38:00,63.9,62.1,30.09,ESE,103,0.0,0.0,94,0.00,,,0.00,Wunderground v.1.15,2013-07-14 09:38:00,
2013-07-14 05:41:00,63.9,62.1,30.09,ESE,103,0.0,0.0,94,0.00,,,0.00,Wunderground v.1.15,2013-07-14 09:41:00,
2013-07-14 05:43:00,63.9,62.1,30.09,ESE,103,0.0,0.0,94,0.00,,,0.00,Wunderground v.1.15,2013-07-14 09:43:00,
2013-07-14 05:44:00,63.9,62.1,30.09,ESE,103,0.0,0.0,94,0.00,,,0.00,Wunderground v.1.15,2013-07-14 09:44:00,
2013-07-14 05:45:00,63.9,62.1,30.10,ESE,103,0.0,0.0,94,0.00,,,0.00,Wunderground v.1.15,2013-07-14 09:45:00,
2013-07-14 05:47:00,63.9,62.1,30.10,ESE,103,0.0,0.0,94,0.00,,,0.00,Wunderground v.1.15,2013-07-14 09:47:00,
2013-07-14 05:49:00,63.9,62.1,30.10,ESE,103,0.0,0.0,94,0.00,,,0.00,Wunderground v.1.15,2013-07-14 09:49:00,
2013-07-14 05:52:00,63.9,62.1,30.10,ESE,103,0.0,0.0,94,0.00,,,0.00,Wunderground v.1.15,2013-07-14 09:52:00,
2013-07-14 05:53:00,63.9,62.1,30.10,ESE,103,0.0,0.0,94,0.00,,,0.00,Wunderground v.1.15,2013-07-14 09:53:00,
2013-07-14 05:55:00,63.7,61.9,30.10,ESE,103,0.0,0.0,94,0.00,,,0.00,Wunderground v.1.15,2013-07-14 09:55:00,
2013-07-14 05:57:00,63.7,61.9,30.10,ESE,103,0.0,0.0,94,0.00,,,0.00,Wunderground v.1.15,2013-07-14 09:57:00,
2013-07-14 05:59:00,63.7,61.9,30.10,ESE,103,0.0,0.0,94,0.00,,,0.00,Wunderground v.1.15,2013-07-14 09:59:00,
2013-07-14 06:00:00,63.7,61.9,30.10,ESE,103,0.0,0.0,94,0.00,,,0.00,Wunderground v.1.15,2013-07-14 10:00:00,
2013-07-14 06:03:00,63.7,61.9,30.10,ESE,103,0.0,0.0,94,0.00,,,0.00,Wunderground v.1.15,2013-07-14 10:03:00,
2013-07-14 06:04:00,63.7,61.9,30.10,ESE,103,0.0,0.0,94,0.00,,,0.00,Wunderground v.1.15,2013-07-14 10:04:00,
2013-07-14 06:06:00,63.7,61.9,30.10,ESE,103,0.0,0.0,94,0.00,,,0.00,Wunderground v.1.15,2013-07-14 10:06:00,
2013-07-14 06:08:00,63.7,61.9,30.10,ESE,103,0.0,0.0,94,0.00,,,0.00,Wunderground v.1.15,2013-07-14 10:08:00,
2013-07-14 06:09:00,63.7,61.9,30.10,ESE,103,0.0,0.0,94,0.00,,,0.00,Wunderground v.1.15,2013-07-14 10:09:00,
2013-07-14 06:10:00,63.7,61.9,30.10,ESE,103,0.0,0.0,94,0.00,,,0.00,Wunderground v.1.15,2013-07-14 10:10:00,
2013-07-14 06:11:00,63.7,61.9,30.10,ESE,103,0.0,0.0,94,0.00,,,0.00,Wunderground v.1.15,2013-07-14 10:11:00,
2013-07-14 06:14:00,63.7,61.9,30.10,ESE,103,0.0,0.0,94,0.00,,,0.00,Wunderground v.1.15,2013-07-14 10:14:00,
2013-07-14 06:15:00,63.7,61.9,30.11,ESE,103,0.0,0.0,94,0.00,,,0.00,Wunderground v.1.15,2013-07-14 10:15:00,
2013-07-14 06:18:00,63.7,61.9,30.11,ESE,103,0.0,0.0,94,0.00,,,0.00,Wunderground v.1.15,2013-07-14 10:18:00,
2013-07-14 06:19:00,63.7,61.9,30.11,ESE,103,0.0,0.0,94,0.00,,,0.00,Wunderground v.1.15,2013-07-14 10:19:00,
2013-07-14 06:20:00,63.6,61.8,30.11,ESE,103,0.0,0.0,94,0.00,,,0.00,Wunderground v.1.15,2013-07-14 10:20:00,
2013-07-14 06:23:00,63.6,61.8,30.11,ESE,103,0.0,0.0,94,0.00,,,0.00,Wunderground v.1.15,2013-07-14 10:23:00,
2013-07-14 06:24:00,63.6,61.8,30.11,ESE,103,0.0,0.0,94,0.00,,,0.00,Wunderground v.1.15,2013-07-14 10:24:00,
2013-07-14 06:26:00,63.6,61.8,30.11,ESE,103,0.0,0.0,94,0.00,,,0.00,Wunderground v.1.15,2013-07-14 10:26:00,
2013-07-14 06:27:00,63.6,61.8,30.11,ESE,103,0.0,0.0,94,0.00,,,0.00,Wunderground v.1.15,2013-07-14 10:27:00,
2013-07-14 06:29:00,63.4,61.6,30.11,ESE,103,0.0,0.0,94,0.00,,,0.00,Wunderground v.1.15,2013-07-14 10:29:00,
2013-07-14 06:30:00,63.4,61.6,30.11,ESE,103,0.0,0.0,94,0.00,,,0.00,Wunderground v.1.15,2013-07-14 10:30:00,
2013-07-14 06:31:00,63.4,61.6,30.11,ESE,103,0.0,0.0,94,0.00,,,0.00,Wunderground v.1.15,2013-07-14 10:31:00,
2013-07-14 06:32:00,63.4,61.6,30.11,ESE,103,0.0,0.0,94,0.00,,,0.00,Wunderground v.1.15,2013-07-14 10:32:00,
2013-07-14 06:34:00,63.2,61.4,30.11,ESE,103,0.0,0.0,94,0.00,,,0.00,Wunderground v.1.15,2013-07-14 10:34:00,
2013-07-14 06:37:00,63.2,61.4,30.11,ESE,103,0.0,0.0,94,0.00,,,0.00,Wunderground v.1.15,2013-07-14 10:37:00,
2013-07-14 06:38:00,63.2,61.4,30.11,ESE,103,0.0,0.0,94,0.00,,,0.00,Wunderground v.1.15,2013-07-14 10:38:00,
2013-07-14 06:40:00,63.2,61.4,30.11,ESE,103,0.0,0.0,94,0.00,,,0.00,Wunderground v.1.15,2013-07-14 10:40:00,
2013-07-14 06:42:00,63.2,61.4,30.11,ESE,103,0.0,0.0,94,0.00,,,0.00,Wunderground v.1.15,2013-07-14 10:42:00,
2013-07-14 06:43:00,63.2,61.4,30.11,ESE,103,0.0,0.0,94,0.00,,,0.00,Wunderground v.1.15,2013-07-14 10:43:00,
2013-07-14 06:45:00,63.2,61.4,30.12,ESE,103,0.0,0.0,94,0.00,,,0.00,Wunderground v.1.15,2013-07-14 10:45:00,
2013-07-14 06:48:00,63.2,61.4,30.12,ESE,103,0.0,0.0,94,0.00,,,0.00,Wunderground v.1.15,2013-07-14 10:48:00,
2013-07-14 06:51:00,63.4,61.6,30.12,ESE,103,0.0,0.0,94,0.00,,,0.00,Wunderground v.1.15,2013-07-14 10:51:00,
2013-07-14 06:53:00,63.4,61.6,30.12,ESE,103,0.0,0.0,94,0.00,,,0.00,Wunderground v.1.15,2013-07-14 10:53:00,
2013-07-14 06:55:00,63.4,61.6,30.12,ESE,103,0.0,0.0,94,0.00,,,0.00,Wunderground v.1.15,2013-07-14 10:55:00,
2013-07-14 06:56:00,63.4,61.6,30.12,ESE,103,0.0,0.0,94,0.00,,,0.00,Wunderground v.1.15,2013-07-14 10:56:00,
2013-07-14 06:58:00,63.6,61.8,30.12,ESE,103,0.0,0.0,94,0.00,,,0.00,Wunderground v.1.15,2013-07-14 10:58:00,
2013-07-14 07:02:00,63.6,61.8,30.12,ESE,103,0.0,0.0,94,0.00,,,0.00,Wunderground v.1.15,2013-07-14 11:02:00,
2013-07-14 07:03:00,63.6,61.8,30.12,ESE,103,0.0,0.0,94,0.00,,,0.00,Wunderground v.1.15,2013-07-14 11:03:00,
2013-07-14 07:05:00,63.6,61.8,30.12,ESE,103,0.0,0.0,94,0.00,,,0.00,Wunderground v.1.15,2013-07-14 11:05:00,
2013-07-14 07:07:00,63.7,61.9,30.12,ESE,103,0.0,0.0,94,0.00,,,0.00,Wunderground v.1.15,2013-07-14 11:07:00,
2013-07-14 07:08:00,63.7,61.9,30.12,ESE,103,0.0,0.0,94,0.00,,,0.00,Wunderground v.1.15,2013-07-14 11:08:00,
2013-07-14 07:10:00,63.7,61.9,30.12,ESE,103,0.0,0.0,94,0.00,,,0.00,Wunderground v.1.15,2013-07-14 11:10:00,
2013-07-14 07:13:00,63.7,61.9,30.12,ESE,103,0.0,0.0,94,0.00,,,0.00,Wunderground v.1.15,2013-07-14 11:13:00,
2013-07-14 07:14:00,63.7,61.9,30.12,ESE,103,0.0,0.0,94,0.00,,,0.00,Wunderground v.1.15,2013-07-14 11:14:00,
2013-07-14 07:17:00,63.7,61.9,30.13,ESE,103,0.0,0.0,94,0.00,,,0.00,Wunderground v.1.15,2013-07-14 11:17:00,
2013-07-14 07:18:00,63.7,61.9,30.13,ESE,103,0.0,0.0,94,0.00,,,0.00,Wunderground v.1.15,2013-07-14 11:18:00,
2013-07-14 07:19:00,63.7,61.9,30.13,ESE,103,0.0,0.0,94,0.00,,,0.00,Wunderground v.1.15,2013-07-14 11:19:00,
2013-07-14 07:21:00,63.7,61.9,30.13,ESE,103,0.0,0.0,94,0.00,,,0.00,Wunderground v.1.15,2013-07-14 11:21:00,
2013-07-14 07:22:00,63.9,62.1,30.13,ESE,103,0.0,0.0,94,0.00,,,0.00,Wunderground v.1.15,2013-07-14 11:22:00,
2013-07-14 07:25:00,64.0,62.2,30.13,ESE,103,0.0,0.0,94,0.00,,,0.00,Wunderground v.1.15,2013-07-14 11:25:00,
2013-07-14 07:26:00,64.0,62.2,30.13,ESE,103,0.0,0.0,94,0.00,,,0.00,Wunderground v.1.15,2013-07-14 11:26:00,
2013-07-14 07:28:00,64.2,62.4,30.13,ESE,103,0.0,0.0,94,0.00,,,0.00,Wunderground v.1.15,2013-07-14 11:28:00,
2013-07-14 07:29:00,64.2,62.7,30.13,ESE,103,0.0,0.0,95,0.00,,,0.00,Wunderground v.1.15,2013-07-14 11:29:00,
2013-07-14 07:30:00,64.2,62.7,30.13,ESE,103,0.0,0.0,95,0.00,,,0.00,Wunderground v.1.15,2013-07-14 11:30:00,
2013-07-14 07:31:00,64.4,62.9,30.13,ESE,103,0.0,0.0,95,0.00,,,0.00,Wunderground v.1.15,2013-07-14 11:31:00,
2013-07-14 07:35:00,64.7,63.2,30.13,ESE,103,0.0,0.0,95,0.00,,,0.00,Wunderground v.1.15,2013-07-14 11:35:00,
2013-07-14 07:36:00,64.7,63.2,30.13,ESE,103,0.0,0.0,95,0.00,,,0.00,Wunderground v.1.15,2013-07-14 11:36:00,
2013-07-14 07:37:00,64.8,63.3,30.13,ESE,103,0.0,0.0,95,0.00,,,0.00,Wunderground v.1.15,2013-07-14 11:37:00,
2013-07-14 07:41:00,65.0,63.5,30.13,ESE,103,0.0,0.0,95,0.00,,,0.00,Wunderground v.1.15,2013-07-14 11:41:00,
2013-07-14 07:42:00,65.2,63.7,30.13,ESE,103,0.0,0.0,95,0.00,,,0.00,Wunderground v.1.15,2013-07-14 11:42:00,
2013-07-14 07:43:00,65.2,63.7,30.13,ESE,103,0.0,0.0,95,0.00,,,0.00,Wunderground v.1.15,2013-07-14 11:43:00,
2013-07-14 07:44:00,65.2,63.7,30.13,ESE,103,0.0,0.0,95,0.00,,,0.00,Wunderground v.1.15,2013-07-14 11:44:00,
2013-07-14 07:46:00,65.3,63.8,30.13,ESE,103,0.0,0.0,95,0.00,,,0.00,Wunderground v.1.15,2013-07-14 11:46:00,
2013-07-14 07:47:00,65.3,63.8,30.13,ESE,103,0.0,0.0,95,0.00,,,0.00,Wunderground v.1.15,2013-07-14 11:47:00,
2013-07-14 07:52:00,65.5,64.0,30.13,ESE,103,0.0,0.0,95,0.00,,,0.00,Wunderground v.1.15,2013-07-14 11:52:00,
2013-07-14 07:53:00,65.5,64.0,30.13,ESE,103,0.0,0.0,95,0.00,,,0.00,Wunderground v.1.15,2013-07-14 11:53:00,
2013-07-14 07:54:00,65.7,64.2,30.13,ESE,103,0.0,0.0,95,0.00,,,0.00,Wunderground v.1.15,2013-07-14 11:54:00,
2013-07-14 07:57:00,65.8,64.3,30.13,ESE,103,0.0,0.0,95,0.00,,,0.00,Wunderground v.1.15,2013-07-14 11:57:00,
2013-07-14 07:59:00,66.0,64.5,30.13,ESE,103,0.0,0.0,95,0.00,,,0.00,Wunderground v.1.15,2013-07-14 11:59:00,
2013-07-14 08:00:00,66.0,64.5,30.13,ESE,103,0.0,0.0,95,0.00,,,0.00,Wunderground v.1.15,2013-07-14 12:00:00,
2013-07-14 08:03:00,66.1,64.6,30.13,ESE,103,0.0,0.0,95,0.00,,,0.00,Wunderground v.1.15,2013-07-14 12:03:00,
2013-07-14 08:04:00,66.1,64.6,30.13,ESE,103,0.0,0.0,95,0.00,,,0.00,Wunderground v.1.15,2013-07-14 12:04:00,
2013-07-14 08:06:00,66.5,65.0,30.13,ESE,103,0.0,0.0,95,0.00,,,0.00,Wunderground v.1.15,2013-07-14 12:06:00,
2013-07-14 08:08:00,66.6,65.1,30.13,ESE,103,0.0,0.0,95,0.00,,,0.00,Wunderground v.1.15,2013-07-14 12:08:00,
2013-07-14 08:09:00,66.8,65.3,30.13,ESE,103,0.0,0.0,95,0.00,,,0.00,Wunderground v.1.15,2013-07-14 12:09:00,
2013-07-14 08:11:00,66.9,65.4,30.13,ESE,103,0.0,0.0,95,0.00,,,0.00,Wunderground v.1.15,2013-07-14 12:11:00,
2013-07-14 08:16:00,67.3,65.8,30.14,ESE,103,0.0,0.0,95,0.00,,,0.00,Wunderground v.1.15,2013-07-14 12:16:00,
2013-07-14 08:17:00,67.4,65.9,30.14,ESE,103,0.0,0.0,95,0.00,,,0.00,Wunderground v.1.15,2013-07-14 12:17:00,
2013-07-14 08:18:00,67.6,66.1,30.14,ESE,103,0.0,0.0,95,0.00,,,0.00,Wunderground v.1.15,2013-07-14 12:18:00,
2013-07-14 08:21:00,68.1,66.6,30.14,ESE,103,0.0,0.0,95,0.00,,,0.00,Wunderground v.1.15,2013-07-14 12:21:00,
2013-07-14 08:24:00,68.6,67.1,30.14,ESE,103,0.0,0.0,95,0.00,,,0.00,Wunderground v.1.15,2013-07-14 12:24:00,
2013-07-14 08:25:00,68.8,67.3,30.14,ESE,103,0.0,0.0,95,0.00,,,0.00,Wunderground v.1.15,2013-07-14 12:25:00,
2013-07-14 08:27:00,68.9,67.4,30.14,ESE,103,0.0,0.0,95,0.00,,,0.00,Wunderground v.1.15,2013-07-14 12:27:00,
2013-07-14 08:28:00,68.9,67.4,30.14,ESE,103,0.0,0.0,95,0.00,,,0.00,Wunderground v.1.15,2013-07-14 12:28:00,
2013-07-14 08:29:00,68.9,67.4,30.14,ESE,103,0.0,0.0,95,0.00,,,0.00,Wunderground v.1.15,2013-07-14 12:29:00,
2013-07-14 08:32:00,69.1,67.6,30.13,ESE,103,0.0,0.0,95,0.00,,,0.00,Wunderground v.1.15,2013-07-14 12:32:00,
2013-07-14 08:33:00,69.1,67.6,30.13,ESE,103,0.0,0.0,95,0.00,,,0.00,Wunderground v.1.15,2013-07-14 12:33:00,
2013-07-14 08:34:00,69.3,67.8,30.13,ESE,103,0.0,0.0,95,0.00,,,0.00,Wunderground v.1.15,2013-07-14 12:34:00,
2013-07-14 08:35:00,69.4,67.9,30.13,ESE,103,0.0,0.0,95,0.00,,,0.00,Wunderground v.1.15,2013-07-14 12:35:00,
2013-07-14 08:39:00,69.9,68.4,30.13,ESE,103,0.0,0.0,95,0.00,,,0.00,Wunderground v.1.15,2013-07-14 12:39:00,
2013-07-14 08:40:00,70.1,68.6,30.13,ESE,103,0.0,0.0,95,0.00,,,0.00,Wunderground v.1.15,2013-07-14 12:40:00,
2013-07-14 08:41:00,70.3,68.8,30.13,ESE,103,0.0,0.0,95,0.00,,,0.00,Wunderground v.1.15,2013-07-14 12:41:00,
2013-07-14 08:44:00,70.4,68.9,30.13,ESE,103,0.0,0.0,95,0.00,,,0.00,Wunderground v.1.15,2013-07-14 12:44:00,
2013-07-14 08:47:00,70.8,69.0,30.13,ESE,103,0.0,0.0,94,0.00,,,0.00,Wunderground v.1.15,2013-07-14 12:47:00,
2013-07-14 08:48:00,70.8,69.0,30.13,ESE,103,0.0,0.0,94,0.00,,,0.00,Wunderground v.1.15,2013-07-14 12:48:00,
2013-07-14 08:49:00,70.9,69.1,30.13,ESE,103,0.0,0.0,94,0.00,,,0.00,Wunderground v.1.15,2013-07-14 12:49:00,
2013-07-14 08:50:00,70.9,69.1,30.13,ESE,103,0.0,0.0,94,0.00,,,0.00,Wunderground v.1.15,2013-07-14 12:50:00,
2013-07-14 08:55:00,71.6,69.5,30.13,ESE,104,0.0,0.0,93,0.00,,,0.00,Wunderground v.1.15,2013-07-14 12:55:00,
2013-07-14 08:57:00,71.8,69.7,30.13,ESE,103,0.0,0.0,93,0.00,,,0.00,Wunderground v.1.15,2013-07-14 12:57:00,
2013-07-14 08:58:00,71.8,69.7,30.13,ESE,103,0.0,0.0,93,0.00,,,0.00,Wunderground v.1.15,2013-07-14 12:58:00,
2013-07-14 09:01:00,72.1,69.6,30.13,ESE,103,0.0,0.0,92,0.00,,,0.00,Wunderground v.1.15,2013-07-14 13:01:00,
2013-07-14 09:03:00,72.3,69.5,30.13,ESE,103,0.0,0.0,91,0.00,,,0.00,Wunderground v.1.15,2013-07-14 13:03:00,
2013-07-14 09:04:00,72.3,69.5,30.13,ESE,103,0.0,0.0,91,0.00,,,0.00,Wunderground v.1.15,2013-07-14 13:04:00,
2013-07-14 09:06:00,72.6,69.5,30.13,ESE,103,0.0,0.0,90,0.00,,,0.00,Wunderground v.1.15,2013-07-14 13:06:00,
2013-07-14 09:08:00,73.0,69.9,30.13,ESE,103,0.0,0.0,90,0.00,,,0.00,Wunderground v.1.15,2013-07-14 13:08:00,
2013-07-14 09:09:00,73.0,69.9,30.13,ESE,103,0.0,0.0,90,0.00,,,0.00,Wunderground v.1.15,2013-07-14 13:09:00,
2013-07-14 09:10:00,73.2,70.1,30.13,ESE,103,0.0,0.0,90,0.00,,,0.00,Wunderground v.1.15,2013-07-14 13:10:00,
2013-07-14 09:11:00,73.2,69.8,30.13,ESE,103,0.0,0.0,89,0.00,,,0.00,Wunderground v.1.15,2013-07-14 13:11:00,
2013-07-14 09:15:00,73.5,69.7,30.14,ESE,103,0.0,1.0,88,0.00,,,0.00,Wunderground v.1.15,2013-07-14 13:15:00,
2013-07-14 09:16:00,73.5,69.4,30.14,ESE,103,0.0,1.0,87,0.00,,,0.00,Wunderground v.1.15,2013-07-14 13:16:00,
2013-07-14 09:17:00,73.5,69.4,30.14,ESE,103,0.0,1.0,87,0.00,,,0.00,Wunderground v.1.15,2013-07-14 13:17:00,
2013-07-14 09:18:00,73.5,69.4,30.14,ESE,104,0.0,1.0,87,0.00,,,0.00,Wunderground v.1.15,2013-07-14 13:18:00,
2013-07-14 09:22:00,73.7,69.2,30.14,ESE,104,1.0,1.0,86,0.00,,,0.00,Wunderground v.1.15,2013-07-14 13:22:00,
2013-07-14 09:23:00,73.7,69.2,30.14,ESE,103,0.0,1.0,86,0.00,,,0.00,Wunderground v.1.15,2013-07-14 13:23:00,
2013-07-14 09:26:00,73.8,69.0,30.14,ESE,123,0.0,1.0,85,0.00,,,0.00,Wunderground v.1.15,2013-07-14 13:26:00,
2013-07-14 09:28:00,74.0,69.2,30.14,ESE,121,0.0,1.0,85,0.00,,,0.00,Wunderground v.1.15,2013-07-14 13:28:00,
2013-07-14 09:29:00,74.0,69.2,30.14,ESE,120,0.0,1.0,85,0.00,,,0.00,Wunderground v.1.15,2013-07-14 13:29:00,
2013-07-14 09:31:00,74.2,69.4,30.14,ESE,120,0.0,0.0,85,0.00,,,0.00,Wunderground v.1.15,2013-07-14 13:31:00,
2013-07-14 09:34:00,74.5,69.3,30.14,ESE,114,0.0,0.0,84,0.00,,,0.00,Wunderground v.1.15,2013-07-14 13:34:00,
2013-07-14 09:35:00,74.5,69.3,30.14,ESE,123,0.0,1.0,84,0.00,,,0.00,Wunderground v.1.15,2013-07-14 13:35:00,
2013-07-14 09:36:00,74.5,69.0,30.14,ESE,120,0.0,1.0,83,0.00,,,0.00,Wunderground v.1.15,2013-07-14 13:36:00,
2013-07-14 09:38:00,74.7,69.5,30.14,ESE,123,0.0,1.0,84,0.00,,,0.00,Wunderground v.1.15,2013-07-14 13:38:00,
2013-07-14 09:40:00,74.7,69.2,30.14,ESE,120,0.0,0.0,83,0.00,,,0.00,Wunderground v.1.15,2013-07-14 13:40:00,
2013-07-14 09:43:00,75.1,69.9,30.14,ESE,113,0.0,0.0,84,0.00,,,0.00,Wunderground v.1.15,2013-07-14 13:43:00,
2013-07-14 09:45:00,75.2,69.7,30.14,ESE,121,0.0,0.0,83,0.00,,,0.00,Wunderground v.1.15,2013-07-14 13:45:00,
2013-07-14 09:46:00,75.4,69.9,30.14,ESE,119,0.0,0.0,83,0.00,,,0.00,Wunderground v.1.15,2013-07-14 13:46:00,
2013-07-14 09:47:00,75.4,69.9,30.14,ESE,121,0.0,0.0,83,0.00,,,0.00,Wunderground v.1.15,2013-07-14 13:47:00,
2013-07-14 09:48:00,75.4,69.5,30.14,ESE,120,0.0,0.0,82,0.00,,,0.00,Wunderground v.1.15,2013-07-14 13:48:00,
2013-07-14 09:50:00,75.6,69.7,30.14,ESE,123,0.0,0.0,82,0.00,,,0.00,Wunderground v.1.15,2013-07-14 13:50:00,
2013-07-14 09:51:00,75.8,70.3,30.14,ESE,123,0.0,0.0,83,0.00,,,0.00,Wunderground v.1.15,2013-07-14 13:51:00,
2013-07-14 09:54:00,75.8,69.9,30.14,ESE,109,0.0,0.0,82,0.00,,,0.00,Wunderground v.1.15,2013-07-14 13:54:00,
2013-07-14 09:55:00,75.9,69.6,30.14,ESE,120,0.0,0.0,81,0.00,,,0.00,Wunderground v.1.15,2013-07-14 13:55:00,
2013-07-14 09:56:00,75.9,69.6,30.14,ESE,119,0.0,0.0,81,0.00,,,0.00,Wunderground v.1.15,2013-07-14 13:56:00,
2013-07-14 09:59:00,76.1,69.8,30.14,ESE,112,0.0,0.0,81,0.00,,,0.00,Wunderground v.1.15,2013-07-14 13:59:00,
2013-07-14 10:00:00,76.1,69.8,30.14,ESE,103,0.0,0.0,81,0.00,,,0.00,Wunderground v.1.15,2013-07-14 14:00:00,
2013-07-14 10:02:00,76.1,69.5,30.14,ESE,103,0.0,0.0,80,0.00,,,0.00,Wunderground v.1.15,2013-07-14 14:02:00,
2013-07-14 10:06:00,76.3,69.7,30.14,SE,131,0.0,0.0,80,0.00,,,0.00,Wunderground v.1.15,2013-07-14 14:06:00,
2013-07-14 10:07:00,76.5,70.2,30.14,SE,124,0.0,0.0,81,0.00,,,0.00,Wunderground v.1.15,2013-07-14 14:07:00,
2013-07-14 10:08:00,76.5,69.9,30.14,SE,133,0.0,0.0,80,0.00,,,0.00,Wunderground v.1.15,2013-07-14 14:08:00,
2013-07-14 10:09:00,76.5,69.5,30.14,ESE,110,0.0,0.0,79,0.00,,,0.00,Wunderground v.1.15,2013-07-14 14:09:00,
2013-07-14 10:10:00,76.5,69.9,30.14,ESE,109,0.0,0.0,80,0.00,,,0.00,Wunderground v.1.15,2013-07-14 14:10:00,
2013-07-14 10:12:00,76.6,70.0,30.14,ESE,109,0.0,0.0,80,0.00,,,0.00,Wunderground v.1.15,2013-07-14 14:12:00,
2013-07-14 10:16:00,76.6,69.6,30.14,ESE,109,0.0,0.0,79,0.00,,,0.00,Wunderground v.1.15,2013-07-14 14:16:00,
2013-07-14 10:17:00,76.6,69.6,30.14,ESE,109,0.0,0.0,79,0.00,,,0.00,Wunderground v.1.15,2013-07-14 14:17:00,
2013-07-14 10:19:00,76.8,70.2,30.14,ESE,109,0.0,0.0,80,0.00,,,0.00,Wunderground v.1.15,2013-07-14 14:19:00,
2013-07-14 10:21:00,77.2,70.9,30.14,ESE,109,0.0,0.0,81,0.00,,,0.00,Wunderground v.1.15,2013-07-14 14:21:00,
2013-07-14 10:23:00,77.3,71.0,30.14,ESE,109,0.0,0.0,81,0.00,,,0.00,Wunderground v.1.15,2013-07-14 14:23:00,
2013-07-14 10:25:00,77.5,70.5,30.14,ESE,109,0.0,0.0,79,0.00,,,0.00,Wunderground v.1.15,2013-07-14 14:25:00,
2013-07-14 10:27:00,77.5,70.5,30.14,ESE,109,0.0,0.0,79,0.00,,,0.00,Wunderground v.1.15,2013-07-14 14:27:00,
2013-07-14 10:28:00,77.5,70.5,30.14,ESE,110,0.0,0.0,79,0.00,,,0.00,Wunderground v.1.15,2013-07-14 14:28:00,
2013-07-14 10:31:00,77.7,70.7,30.14,ESE,121,0.0,0.0,79,0.00,,,0.00,Wunderground v.1.15,2013-07-14 14:31:00,
2013-07-14 10:33:00,77.7,70.3,30.14,SE,128,0.0,0.0,78,0.00,,,0.00,Wunderground v.1.15,2013-07-14 14:33:00,
2013-07-14 10:34:00,77.7,70.3,30.14,SE,127,0.0,0.0,78,0.00,,,0.00,Wunderground v.1.15,2013-07-14 14:34:00,
2013-07-14 10:36:00,77.7,70.3,30.14,SE,133,0.0,0.0,78,0.00,,,0.00,Wunderground v.1.15,2013-07-14 14:36:00,
2013-07-14 10:37:00,77.9,70.9,30.14,ESE,121,0.0,0.0,79,0.00,,,0.00,Wunderground v.1.15,2013-07-14 14:37:00,
2013-07-14 10:40:00,77.9,70.1,30.14,SSW,198,0.0,2.0,77,0.00,,,0.00,Wunderground v.1.15,2013-07-14 14:40:00,
2013-07-14 10:41:00,77.9,70.1,30.14,SSW,192,0.0,2.0,77,0.00,,,0.00,Wunderground v.1.15,2013-07-14 14:41:00,
2013-07-14 10:43:00,77.9,70.5,30.14,SSW,202,0.0,2.0,78,0.00,,,0.00,Wunderground v.1.15,2013-07-14 14:43:00,
2013-07-14 10:44:00,78.1,71.1,30.14,SSW,208,0.0,2.0,79,0.00,,,0.00,Wunderground v.1.15,2013-07-14 14:44:00,
2013-07-14 10:46:00,78.1,70.7,30.14,SSW,192,0.0,2.0,78,0.00,,,0.00,Wunderground v.1.15,2013-07-14 14:46:00,
2013-07-14 10:48:00,78.2,70.8,30.14,SSW,192,0.0,2.0,78,0.00,,,0.00,Wunderground v.1.15,2013-07-14 14:48:00,
2013-07-14 10:51:00,78.4,71.0,30.14,South,186,0.0,0.0,78,0.00,,,0.00,Wunderground v.1.15,2013-07-14 14:51:00,
2013-07-14 10:52:00,78.4,71.0,30.14,South,185,0.0,0.0,78,0.00,,,0.00,Wunderground v.1.15,2013-07-14 14:52:00,
2013-07-14 10:54:00,78.6,71.2,30.14,South,184,0.0,0.0,78,0.00,,,0.00,Wunderground v.1.15,2013-07-14 14:54:00,
2013-07-14 10:56:00,78.8,71.4,30.14,South,184,0.0,0.0,78,0.00,,,0.00,Wunderground v.1.15,2013-07-14 14:56:00,
2013-07-14 10:58:00,79.0,71.2,30.14,South,184,0.0,0.0,77,0.00,,,0.00,Wunderground v.1.15,2013-07-14 14:58:00,
2013-07-14 11:01:00,79.1,71.3,30.13,SSW,195,0.0,0.0,77,0.00,,,0.00,Wunderground v.1.15,2013-07-14 15:01:00,
2013-07-14 11:03:00,79.5,70.9,30.13,SSW,195,0.0,0.0,75,0.00,,,0.00,Wunderground v.1.15,2013-07-14 15:03:00,
2013-07-14 11:05:00,79.5,70.5,30.13,SSW,195,0.0,0.0,74,0.00,,,0.00,Wunderground v.1.15,2013-07-14 15:05:00,
2013-07-14 11:06:00,79.7,71.1,30.13,SSW,195,0.0,0.0,75,0.00,,,0.00,Wunderground v.1.15,2013-07-14 15:06:00,
2013-07-14 11:08:00,79.7,71.1,30.13,SSW,193,0.0,0.0,75,0.00,,,0.00,Wunderground v.1.15,2013-07-14 15:08:00,
2013-07-14 11:09:00,79.9,70.9,30.13,SSW,193,0.0,0.0,74,0.00,,,0.00,Wunderground v.1.15,2013-07-14 15:09:00,
2013-07-14 11:11:00,80.1,71.5,30.13,SSW,193,0.0,0.0,75,0.00,,,0.00,Wunderground v.1.15,2013-07-14 15:11:00,
2013-07-14 11:12:00,80.1,71.8,30.13,SSW,193,0.0,0.0,76,0.00,,,0.00,Wunderground v.1.15,2013-07-14 15:12:00,
2013-07-14 11:13:00,80.1,71.5,30.13,SSW,193,0.0,0.0,75,0.00,,,0.00,Wunderground v.1.15,2013-07-14 15:13:00,
2013-07-14 11:14:00,80.3,71.6,30.13,SSW,193,0.0,0.0,75,0.00,,,0.00,Wunderground v.1.15,2013-07-14 15:14:00,
2013-07-14 11:15:00,80.3,71.6,30.13,SSW,193,0.0,0.0,75,0.00,,,0.00,Wunderground v.1.15,2013-07-14 15:15:00,
2013-07-14 11:17:00,80.6,71.9,30.13,SSW,193,0.0,0.0,75,0.00,,,0.00,Wunderground v.1.15,2013-07-14 15:17:00,
2013-07-14 11:18:00,80.8,72.5,30.13,SSW,193,0.0,0.0,76,0.00,,,0.00,Wunderground v.1.15,2013-07-14 15:18:00,
2013-07-14 11:21:00,81.2,71.7,30.13,SSW,193,0.0,0.0,73,0.00,,,0.00,Wunderground v.1.15,2013-07-14 15:21:00,
2013-07-14 11:24:00,81.4,71.5,30.13,SSW,193,0.0,0.0,72,0.00,,,0.00,Wunderground v.1.15,2013-07-14 15:24:00,
2013-07-14 11:26:00,81.6,71.3,30.13,SSW,193,0.0,0.0,71,0.00,,,0.00,Wunderground v.1.15,2013-07-14 15:26:00,
2013-07-14 11:28:00,81.7,71.4,30.13,SSW,193,0.0,0.0,71,0.00,,,0.00,Wunderground v.1.15,2013-07-14 15:28:00,
2013-07-14 11:30:00,81.7,71.0,30.13,SSW,193,0.0,0.0,70,0.00,,,0.00,Wunderground v.1.15,2013-07-14 15:30:00,
2013-07-14 11:31:00,81.7,71.4,30.13,SSW,193,0.0,0.0,71,0.00,,,0.00,Wunderground v.1.15,2013-07-14 15:31:00,
2013-07-14 11:35:00,82.1,71.8,30.13,SSW,193,0.0,0.0,71,0.00,,,0.00,Wunderground v.1.15,2013-07-14 15:35:00,
2013-07-14 11:36:00,82.3,72.4,30.13,SSW,193,0.0,0.0,72,0.00,,,0.00,Wunderground v.1.15,2013-07-14 15:36:00,
2013-07-14 11:37:00,82.3,72.4,30.13,SW,216,0.0,0.0,72,0.00,,,0.00,Wunderground v.1.15,2013-07-14 15:37:00,
2013-07-14 11:42:00,82.7,71.9,30.13,SSW,203,0.0,0.0,70,0.00,,,0.00,Wunderground v.1.15,2013-07-14 15:42:00,
2013-07-14 11:43:00,82.7,71.9,30.13,SSW,203,0.0,1.0,70,0.00,,,0.00,Wunderground v.1.15,2013-07-14 15:43:00,
2013-07-14 11:45:00,82.7,70.2,30.13,SSW,208,0.0,2.0,66,0.00,,,0.00,Wunderground v.1.15,2013-07-14 15:45:00,
2013-07-14 11:47:00,82.7,70.6,30.13,SSW,192,1.0,3.0,67,0.00,,,0.00,Wunderground v.1.15,2013-07-14 15:47:00,
2013-07-14 11:51:00,82.9,70.8,30.13,SSW,203,1.0,1.0,67,0.00,,,0.00,Wunderground v.1.15,2013-07-14 15:51:00,
2013-07-14 11:52:00,82.9,70.8,30.13,SSW,203,1.0,1.0,67,0.00,,,0.00,Wunderground v.1.15,2013-07-14 15:52:00,
2013-07-14 11:53:00,83.1,71.9,30.13,SSW,203,1.0,1.0,69,0.00,,,0.00,Wunderground v.1.15,2013-07-14 15:53:00,
2013-07-14 11:56:00,83.1,71.0,30.13,SSW,203,0.0,1.0,67,0.00,,,0.00,Wunderground v.1.15,2013-07-14 15:56:00,
2013-07-14 11:57:00,83.3,71.2,30.13,SSW,205,0.0,1.0,67,0.00,,,0.00,Wunderground v.1.15,2013-07-14 15:57:00,
2013-07-14 11:58:00,83.3,70.8,30.13,SSW,203,0.0,1.0,66,0.00,,,0.00,Wunderground v.1.15,2013-07-14 15:58:00,
2013-07-14 12:01:00,83.3,70.3,30.13,SSW,203,0.0,0.0,65,0.00,,,0.00,Wunderground v.1.15,2013-07-14 16:01:00,
2013-07-14 12:03:00,83.3,69.8,30.13,SSW,210,1.0,3.0,64,0.00,,,0.00,Wunderground v.1.15,2013-07-14 16:03:00,
2013-07-14 12:05:00,83.5,70.5,30.13,SW,220,1.0,3.0,65,0.00,,,0.00,Wunderground v.1.15,2013-07-14 16:05:00,
2013-07-14 12:06:00,83.5,70.5,30.13,SW,220,1.0,3.0,65,0.00,,,0.00,Wunderground v.1.15,2013-07-14 16:06:00,
2013-07-14 12:09:00,83.5,70.0,30.13,South,186,1.0,3.0,64,0.00,,,0.00,Wunderground v.1.15,2013-07-14 16:09:00,
2013-07-14 12:10:00,83.5,69.6,30.13,South,186,1.0,1.0,63,0.00,,,0.00,Wunderground v.1.15,2013-07-14 16:10:00,
2013-07-14 12:11:00,83.7,69.8,30.13,South,179,2.0,2.0,63,0.00,,,0.00,Wunderground v.1.15,2013-07-14 16:11:00,
2013-07-14 12:14:00,83.5,69.6,30.13,South,179,1.0,2.0,63,0.00,,,0.00,Wunderground v.1.15,2013-07-14 16:14:00,
2013-07-14 12:19:00,83.9,70.9,30.13,South,181,1.0,2.0,65,0.00,,,0.00,Wunderground v.1.15,2013-07-14 16:19:00,
2013-07-14 12:20:00,83.9,70.4,30.13,SW,217,0.0,3.0,64,0.00,,,0.00,Wunderground v.1.15,2013-07-14 16:20:00,
2013-07-14 12:22:00,84.1,70.6,30.13,SW,217,1.0,3.0,64,0.00,,,0.00,Wunderground v.1.15,2013-07-14 16:22:00,
2013-07-14 12:26:00,84.5,71.4,30.13,SW,217,0.0,3.0,65,0.00,,,0.00,Wunderground v.1.15,2013-07-14 16:26:00,
2013-07-14 12:27:00,84.5,71.0,30.13,SW,217,0.0,3.0,64,0.00,,,0.00,Wunderground v.1.15,2013-07-14 16:27:00,
2013-07-14 12:30:00,84.5,69.6,30.14,SW,217,0.0,0.0,61,0.00,,,0.00,Wunderground v.1.15,2013-07-14 16:30:00,
2013-07-14 12:32:00,84.5,70.5,30.14,SW,217,0.0,0.0,63,0.00,,,0.00,Wunderground v.1.15,2013-07-14 16:32:00,
2013-07-14 12:34:00,84.5,69.6,30.14,SSE,160,0.0,1.0,61,0.00,,,0.00,Wunderground v.1.15,2013-07-14 16:34:00,
2013-07-14 12:37:00,84.3,70.3,30.14,SSE,160,1.0,2.0,63,0.00,,,0.00,Wunderground v.1.15,2013-07-14 16:37:00,
2013-07-14 12:38:00,84.3,70.3,30.14,SSE,160,1.0,2.0,63,0.00,,,0.00,Wunderground v.1.15,2013-07-14 16:38:00,
2013-07-14 12:39:00,84.3,69.9,30.14,SSE,160,1.0,2.0,62,0.00,,,0.00,Wunderground v.1.15,2013-07-14 16:39:00,
2013-07-14 12:43:00,84.5,71.4,30.14,SSW,203,1.0,1.0,65,0.00,,,0.00,Wunderground v.1.15,2013-07-14 16:43:00,
2013-07-14 12:44:00,84.6,70.6,30.14,SSW,199,1.0,1.0,63,0.00,,,0.00,Wunderground v.1.15,2013-07-14 16:44:00,
2013-07-14 12:45:00,84.6,69.7,30.13,SSW,210,1.0,1.0,61,0.00,,,0.00,Wunderground v.1.15,2013-07-14 16:45:00,
2013-07-14 12:47:00,84.8,70.3,30.13,SW,215,0.0,1.0,62,0.00,,,0.00,Wunderground v.1.15,2013-07-14 16:47:00,
2013-07-14 12:49:00,85.0,69.1,30.13,SSW,193,1.0,3.0,59,0.00,,,0.00,Wunderground v.1.15,2013-07-14 16:49:00,
2013-07-14 12:50:00,85.0,69.6,30.13,South,181,1.0,1.0,60,0.00,,,0.00,Wunderground v.1.15,2013-07-14 16:50:00,
2013-07-14 12:54:00,84.6,69.2,30.13,South,181,1.0,1.0,60,0.00,,,0.00,Wunderground v.1.15,2013-07-14 16:54:00,
2013-07-14 12:58:00,84.6,70.6,30.13,South,181,1.0,1.0,63,0.00,,,0.00,Wunderground v.1.15,2013-07-14 16:58:00,
2013-07-14 12:59:00,84.6,70.1,30.13,South,181,0.0,1.0,62,0.00,,,0.00,Wunderground v.1.15,2013-07-14 16:59:00,
2013-07-14 13:02:00,84.8,70.8,30.13,SE,133,0.0,2.0,63,0.00,,,0.00,Wunderground v.1.15,2013-07-14 17:02:00,
2013-07-14 13:04:00,85.0,70.5,30.13,South,175,0.0,2.0,62,0.00,,,0.00,Wunderground v.1.15,2013-07-14 17:04:00,
2013-07-14 13:06:00,85.0,70.5,30.13,SW,230,1.0,3.0,62,0.00,,,0.00,Wunderground v.1.15,2013-07-14 17:06:00,
2013-07-14 13:07:00,85.2,70.7,30.13,SW,230,1.0,3.0,62,0.00,,,0.00,Wunderground v.1.15,2013-07-14 17:07:00,
2013-07-14 13:08:00,85.4,70.9,30.13,SW,230,1.0,3.0,62,0.00,,,0.00,Wunderground v.1.15,2013-07-14 17:08:00,
2013-07-14 13:10:00,85.6,71.1,30.13,SW,230,1.0,1.0,62,0.00,,,0.00,Wunderground v.1.15,2013-07-14 17:10:00,
2013-07-14 13:13:00,86.0,71.5,30.13,SW,226,1.0,2.0,62,0.00,,,0.00,Wunderground v.1.15,2013-07-14 17:13:00,
2013-07-14 13:15:00,86.2,71.2,30.13,SW,226,1.0,2.0,61,0.00,,,0.00,Wunderground v.1.15,2013-07-14 17:15:00,
2013-07-14 13:20:00,85.6,69.6,30.13,SW,226,0.0,0.0,59,0.00,,,0.00,Wunderground v.1.15,2013-07-14 17:20:00,
2013-07-14 13:21:00,85.4,70.4,30.13,SW,226,0.0,0.0,61,0.00,,,0.00,Wunderground v.1.15,2013-07-14 17:21:00,
2013-07-14 13:25:00,85.6,70.1,30.13,SW,226,0.0,0.0,60,0.00,,,0.00,Wunderground v.1.15,2013-07-14 17:25:00,
2013-07-14 13:26:00,85.6,71.1,30.13,SW,226,0.0,0.0,62,0.00,,,0.00,Wunderground v.1.15,2013-07-14 17:26:00,
2013-07-14 13:28:00,85.6,70.1,30.13,SSE,151,0.0,2.0,60,0.00,,,0.00,Wunderground v.1.15,2013-07-14 17:28:00,
2013-07-14 13:30:00,85.8,69.8,30.13,SSE,151,0.0,0.0,59,0.00,,,0.00,Wunderground v.1.15,2013-07-14 17:30:00,
2013-07-14 13:31:00,85.8,69.3,30.13,SSE,165,0.0,0.0,58,0.00,,,0.00,Wunderground v.1.15,2013-07-14 17:31:00,
2013-07-14 13:34:00,85.6,69.1,30.13,SE,144,1.0,6.0,58,0.00,,,0.00,Wunderground v.1.15,2013-07-14 17:34:00,
2013-07-14 13:35:00,85.4,69.4,30.13,SE,144,1.0,6.0,59,0.00,,,0.00,Wunderground v.1.15,2013-07-14 17:35:00,
2013-07-14 13:36:00,85.6,70.6,30.13,SE,144,1.0,6.0,61,0.00,,,0.00,Wunderground v.1.15,2013-07-14 17:36:00,
2013-07-14 13:38:00,85.4,69.9,30.13,SE,144,1.0,6.0,60,0.00,,,0.00,Wunderground v.1.15,2013-07-14 17:38:00,
2013-07-14 13:39:00,85.6,69.6,30.13,SE,144,1.0,6.0,59,0.00,,,0.00,Wunderground v.1.15,2013-07-14 17:39:00,
2013-07-14 13:41:00,85.6,69.6,30.13,SE,144,1.0,1.0,59,0.00,,,0.00,Wunderground v.1.15,2013-07-14 17:41:00,
2013-07-14 13:43:00,85.6,69.6,30.13,SE,144,1.0,1.0,59,0.00,,,0.00,Wunderground v.1.15,2013-07-14 17:43:00,
2013-07-14 13:45:00,85.6,69.6,30.13,SE,144,0.0,1.0,59,0.00,,,0.00,Wunderground v.1.15,2013-07-14 17:45:00,
2013-07-14 13:46:00,85.6,69.6,30.13,SE,144,0.0,1.0,59,0.00,,,0.00,Wunderground v.1.15,2013-07-14 17:46:00,
2013-07-14 13:48:00,85.6,70.1,30.13,SE,144,0.0,1.0,60,0.00,,,0.00,Wunderground v.1.15,2013-07-14 17:48:00,
2013-07-14 13:49:00,85.6,69.6,30.13,SE,144,0.0,1.0,59,0.00,,,0.00,Wunderground v.1.15,2013-07-14 17:49:00,
2013-07-14 13:50:00,85.6,70.6,30.13,SE,144,0.0,0.0,61,0.00,,,0.00,Wunderground v.1.15,2013-07-14 17:50:00,
2013-07-14 13:52:00,85.4,69.4,30.13,SE,144,0.0,0.0,59,0.00,,,0.00,Wunderground v.1.15,2013-07-14 17:52:00,
2013-07-14 13:54:00,85.4,69.9,30.13,SE,144,0.0,0.0,60,0.00,,,0.00,Wunderground v.1.15,2013-07-14 17:54:00,
2013-07-14 13:56:00,85.6,69.6,30.13,SE,144,0.0,0.0,59,0.00,,,0.00,Wunderground v.1.15,2013-07-14 17:56:00,
2013-07-14 13:57:00,85.6,70.1,30.13,SE,144,0.0,0.0,60,0.00,,,0.00,Wunderground v.1.15,2013-07-14 17:57:00,
2013-07-14 13:58:00,85.6,70.1,30.13,SE,144,0.0,0.0,60,0.00,,,0.00,Wunderground v.1.15,2013-07-14 17:58:00,
2013-07-14 14:03:00,85.2,69.7,30.13,SE,144,0.0,0.0,60,0.00,,,0.00,Wunderground v.1.15,2013-07-14 18:03:00,
2013-07-14 14:04:00,85.2,69.7,30.13,SE,144,0.0,0.0,60,0.00,,,0.00,Wunderground v.1.15,2013-07-14 18:04:00,
2013-07-14 14:05:00,85.2,70.7,30.13,SE,144,0.0,0.0,62,0.00,,,0.00,Wunderground v.1.15,2013-07-14 18:05:00,
2013-07-14 14:06:00,85.2,70.2,30.13,SE,144,0.0,0.0,61,0.00,,,0.00,Wunderground v.1.15,2013-07-14 18:06:00,
2013-07-14 14:09:00,85.2,69.7,30.13,SE,144,0.0,0.0,60,0.00,,,0.00,Wunderground v.1.15,2013-07-14 18:09:00,
2013-07-14 14:10:00,85.0,69.6,30.13,SE,144,0.0,0.0,60,0.00,,,0.00,Wunderground v.1.15,2013-07-14 18:10:00,
2013-07-14 14:11:00,85.0,68.6,30.13,SE,144,0.0,0.0,58,0.00,,,0.00,Wunderground v.1.15,2013-07-14 18:11:00,
2013-07-14 14:12:00,85.0,69.1,30.13,SE,144,0.0,0.0,59,0.00,,,0.00,Wunderground v.1.15,2013-07-14 18:12:00,
2013-07-14 14:14:00,85.2,70.2,30.13,SE,144,0.0,0.0,61,0.00,,,0.00,Wunderground v.1.15,2013-07-14 18:14:00,
2013-07-14 14:17:00,85.2,69.3,30.13,SE,144,0.0,0.0,59,0.00,,,0.00,Wunderground v.1.15,2013-07-14 18:17:00,
2013-07-14 14:18:00,85.2,69.7,30.13,SE,144,0.0,0.0,60,0.00,,,0.00,Wunderground v.1.15,2013-07-14 18:18:00,
2013-07-14 14:19:00,85.2,69.3,30.13,SE,144,0.0,0.0,59,0.00,,,0.00,Wunderground v.1.15,2013-07-14 18:19:00,
2013-07-14 14:24:00,85.6,69.6,30.13,SE,144,0.0,3.0,59,0.00,,,0.00,Wunderground v.1.15,2013-07-14 18:24:00,
2013-07-14 14:25:00,85.6,69.6,30.13,SE,144,0.0,3.0,59,0.00,,,0.00,Wunderground v.1.15,2013-07-14 18:25:00,
2013-07-14 14:29:00,85.8,69.8,30.13,SE,144,0.0,3.0,59,0.00,,,0.00,Wunderground v.1.15,2013-07-14 18:29:00,
2013-07-14 14:30:00,85.6,69.6,30.13,SE,144,0.0,0.0,59,0.00,,,0.00,Wunderground v.1.15,2013-07-14 18:30:00,
2013-07-14 14:32:00,85.6,70.6,30.13,SE,144,0.0,0.0,61,0.00,,,0.00,Wunderground v.1.15,2013-07-14 18:32:00,
2013-07-14 14:33:00,85.6,71.1,30.13,SE,144,0.0,0.0,62,0.00,,,0.00,Wunderground v.1.15,2013-07-14 18:33:00,
2013-07-14 14:36:00,85.8,70.8,30.13,SE,144,0.0,2.0,61,0.00,,,0.00,Wunderground v.1.15,2013-07-14 18:36:00,
2013-07-14 14:37:00,85.8,68.8,30.13,SE,144,0.0,2.0,57,0.00,,,0.00,Wunderground v.1.15,2013-07-14 18:37:00,
2013-07-14 14:38:00,85.6,69.6,30.13,SE,144,0.0,2.0,59,0.00,,,0.00,Wunderground v.1.15,2013-07-14 18:38:00,
2013-07-14 14:39:00,85.6,68.6,30.13,SE,144,0.0,2.0,57,0.00,,,0.00,Wunderground v.1.15,2013-07-14 18:39:00,
2013-07-14 14:40:00,85.6,69.1,30.13,SE,144,0.0,2.0,58,0.00,,,0.00,Wunderground v.1.15,2013-07-14 18:40:00,
2013-07-14 14:41:00,85.4,69.4,30.13,SE,144,1.0,3.0,59,0.00,,,0.00,Wunderground v.1.15,2013-07-14 18:41:00,
2013-07-14 14:43:00,85.4,69.9,30.13,SE,144,1.0,3.0,60,0.00,,,0.00,Wunderground v.1.15,2013-07-14 18:43:00,
2013-07-14 14:45:00,85.6,70.1,30.13,SE,144,1.0,3.0,60,0.00,,,0.00,Wunderground v.1.15,2013-07-14 18:45:00,
2013-07-14 14:48:00,85.8,68.8,30.13,SE,144,1.0,3.0,57,0.00,,,0.00,Wunderground v.1.15,2013-07-14 18:48:00,
2013-07-14 14:50:00,86.0,69.5,30.13,SE,144,1.0,2.0,58,0.00,,,0.00,Wunderground v.1.15,2013-07-14 18:50:00,
2013-07-14 14:51:00,86.0,69.0,30.13,SE,127,1.0,3.0,57,0.00,,,0.00,Wunderground v.1.15,2013-07-14 18:51:00,
2013-07-14 14:52:00,86.0,69.0,30.13,SE,127,1.0,3.0,57,0.00,,,0.00,Wunderground v.1.15,2013-07-14 18:52:00,
2013-07-14 14:57:00,86.4,68.8,30.13,SE,127,1.0,3.0,56,0.00,,,0.00,Wunderground v.1.15,2013-07-14 18:57:00,
2013-07-14 14:58:00,86.2,68.7,30.13,SE,127,1.0,3.0,56,0.00,,,0.00,Wunderground v.1.15,2013-07-14 18:58:00,
2013-07-14 14:59:00,86.0,68.5,30.13,SE,127,1.0,3.0,56,0.00,,,0.00,Wunderground v.1.15,2013-07-14 18:59:00,
2013-07-14 15:00:00,86.0,68.5,30.13,SE,127,1.0,1.0,56,0.00,,,0.00,Wunderground v.1.15,2013-07-14 19:00:00,
2013-07-14 15:03:00,85.6,69.6,30.13,SE,127,0.0,1.0,59,0.00,,,0.00,Wunderground v.1.15,2013-07-14 19:03:00,
2013-07-14 15:05:00,85.6,70.1,30.13,SE,127,0.0,1.0,60,0.00,,,0.00,Wunderground v.1.15,2013-07-14 19:05:00,
2013-07-14 15:06:00,85.8,70.8,30.13,SE,127,0.0,1.0,61,0.00,,,0.00,Wunderground v.1.15,2013-07-14 19:06:00,
2013-07-14 15:07:00,85.8,68.8,30.13,SSW,202,0.0,2.0,57,0.00,,,0.00,Wunderground v.1.15,2013-07-14 19:07:00,
2013-07-14 15:08:00,86.0,69.0,30.13,SSW,210,0.0,2.0,57,0.00,,,0.00,Wunderground v.1.15,2013-07-14 19:08:00,
2013-07-14 15:11:00,86.4,69.9,30.13,SSW,210,0.0,0.0,58,0.00,,,0.00,Wunderground v.1.15,2013-07-14 19:11:00,
2013-07-14 15:12:00,86.6,69.0,30.13,SSW,210,0.0,0.0,56,0.00,,,0.00,Wunderground v.1.15,2013-07-14 19:12:00,
2013-07-14 15:17:00,87.0,70.4,30.12,SSW,210,0.0,0.0,58,0.00,,,0.00,Wunderground v.1.15,2013-07-14 19:17:00,
2013-07-14 15:18:00,87.0,69.9,30.12,SSW,210,0.0,0.0,57,0.00,,,0.00,Wunderground v.1.15,2013-07-14 19:18:00,
2013-07-14 15:19:00,87.2,70.1,30.12,SSW,210,0.0,0.0,57,0.00,,,0.00,Wunderground v.1.15,2013-07-14 19:19:00,
2013-07-14 15:20:00,87.0,69.9,30.12,South,175,0.0,5.0,57,0.00,,,0.00,Wunderground v.1.15,2013-07-14 19:20:00,
2013-07-14 15:22:00,86.8,69.2,30.12,South,175,0.0,5.0,56,0.00,,,0.00,Wunderground v.1.15,2013-07-14 19:22:00,
2013-07-14 15:24:00,86.8,71.2,30.12,South,175,0.0,5.0,60,0.00,,,0.00,Wunderground v.1.15,2013-07-14 19:24:00,
2013-07-14 15:27:00,86.8,70.2,30.12,South,175,0.0,5.0,58,0.00,,,0.00,Wunderground v.1.15,2013-07-14 19:27:00,
2013-07-14 15:29:00,86.8,69.7,30.12,South,175,0.0,5.0,57,0.00,,,0.00,Wunderground v.1.15,2013-07-14 19:29:00,
2013-07-14 15:31:00,86.8,69.7,30.12,SE,138,0.0,5.0,57,0.00,,,0.00,Wunderground v.1.15,2013-07-14 19:31:00,
2013-07-14 15:32:00,86.8,68.7,30.12,SE,138,0.0,5.0,55,0.00,,,0.00,Wunderground v.1.15,2013-07-14 19:32:00,
2013-07-14 15:34:00,86.8,69.7,30.12,SE,138,0.0,5.0,57,0.00,,,0.00,Wunderground v.1.15,2013-07-14 19:34:00,
2013-07-14 15:36:00,86.8,68.7,30.12,SE,138,0.0,5.0,55,0.00,,,0.00,Wunderground v.1.15,2013-07-14 19:36:00,
2013-07-14 15:37:00,86.8,68.2,30.12,SE,138,0.0,5.0,54,0.00,,,0.00,Wunderground v.1.15,2013-07-14 19:37:00,
2013-07-14 15:38:00,86.8,68.7,30.12,SE,138,0.0,5.0,55,0.00,,,0.00,Wunderground v.1.15,2013-07-14 19:38:00,
2013-07-14 15:43:00,87.2,70.1,30.12,SSE,158,0.0,0.0,57,0.00,,,0.00,Wunderground v.1.15,2013-07-14 19:43:00,
2013-07-14 15:44:00,87.5,70.4,30.12,SSE,158,0.0,0.0,57,0.00,,,0.00,Wunderground v.1.15,2013-07-14 19:44:00,
2013-07-14 15:45:00,87.5,69.9,30.12,SSE,157,0.0,2.0,56,0.00,,,0.00,Wunderground v.1.15,2013-07-14 19:45:00,
2013-07-14 15:49:00,87.5,70.4,30.12,SSE,167,0.0,2.0,57,0.00,,,0.00,Wunderground v.1.15,2013-07-14 19:49:00,
2013-07-14 15:50:00,87.7,70.6,30.12,SSE,167,0.0,0.0,57,0.00,,,0.00,Wunderground v.1.15,2013-07-14 19:50:00,
2013-07-14 15:52:00,87.7,69.5,30.12,SW,222,0.0,6.0,55,0.00,,,0.00,Wunderground v.1.15,2013-07-14 19:52:00,
2013-07-14 15:55:00,87.7,69.5,30.12,SW,226,0.0,6.0,55,0.00,,,0.00,Wunderground v.1.15,2013-07-14 19:55:00,
2013-07-14 15:56:00,87.7,69.5,30.12,SW,226,0.0,6.0,55,0.00,,,0.00,Wunderground v.1.15,2013-07-14 19:56:00,
2013-07-14 15:57:00,87.7,69.0,30.12,SSW,208,0.0,6.0,54,0.00,,,0.00,Wunderground v.1.15,2013-07-14 19:57:00,
2013-07-14 16:01:00,87.2,69.6,30.12,South,178,0.0,0.0,56,0.00,,,0.00,Wunderground v.1.15,2013-07-14 20:01:00,
2013-07-14 16:05:00,87.2,70.1,30.12,SSE,147,0.0,2.0,57,0.00,,,0.00,Wunderground v.1.15,2013-07-14 20:05:00,
2013-07-14 16:06:00,87.0,70.4,30.12,SSE,147,0.0,3.0,58,0.00,,,0.00,Wunderground v.1.15,2013-07-14 20:06:00,
2013-07-14 16:07:00,87.0,69.4,30.12,SSE,147,1.0,3.0,56,0.00,,,0.00,Wunderground v.1.15,2013-07-14 20:07:00,
2013-07-14 16:10:00,86.8,69.2,30.12,SSE,147,0.0,0.0,56,0.00,,,0.00,Wunderground v.1.15,2013-07-14 20:10:00,
2013-07-14 16:11:00,86.8,69.7,30.12,SSE,147,0.0,0.0,57,0.00,,,0.00,Wunderground v.1.15,2013-07-14 20:11:00,
2013-07-14 16:12:00,86.8,69.7,30.12,SSE,147,0.0,0.0,57,0.00,,,0.00,Wunderground v.1.15,2013-07-14 20:12:00,
2013-07-14 16:14:00,86.8,70.2,30.12,SSE,147,0.0,0.0,58,0.00,,,0.00,Wunderground v.1.15,2013-07-14 20:14:00,
2013-07-14 16:15:00,86.8,69.7,30.12,SSE,147,0.0,0.0,57,0.00,,,0.00,Wunderground v.1.15,2013-07-14 20:15:00,
2013-07-14 16:16:00,86.8,69.7,30.12,SSE,147,0.0,0.0,57,0.00,,,0.00,Wunderground v.1.15,2013-07-14 20:16:00,
2013-07-14 16:21:00,87.0,68.9,30.12,SSE,147,0.0,0.0,55,0.00,,,0.00,Wunderground v.1.15,2013-07-14 20:21:00,
2013-07-14 16:22:00,87.0,69.4,30.12,SSE,147,0.0,0.0,56,0.00,,,0.00,Wunderground v.1.15,2013-07-14 20:22:00,
2013-07-14 16:24:00,87.2,68.5,30.12,SSE,147,0.0,0.0,54,0.00,,,0.00,Wunderground v.1.15,2013-07-14 20:24:00,
2013-07-14 16:25:00,87.2,68.5,30.12,SSE,147,0.0,0.0,54,0.00,,,0.00,Wunderground v.1.15,2013-07-14 20:25:00,
2013-07-14 16:28:00,86.8,69.2,30.12,SSE,147,0.0,2.0,56,0.00,,,0.00,Wunderground v.1.15,2013-07-14 20:28:00,
2013-07-14 16:29:00,86.6,69.6,30.12,SSE,147,0.0,5.0,57,0.00,,,0.00,Wunderground v.1.15,2013-07-14 20:29:00,
2013-07-14 16:31:00,86.4,69.9,30.12,SSE,147,0.0,0.0,58,0.00,,,0.00,Wunderground v.1.15,2013-07-14 20:31:00,
2013-07-14 16:33:00,86.0,69.0,30.12,SSE,147,0.0,0.0,57,0.00,,,0.00,Wunderground v.1.15,2013-07-14 20:33:00,
2013-07-14 16:36:00,85.8,69.3,30.12,SSE,147,0.0,0.0,58,0.00,,,0.00,Wunderground v.1.15,2013-07-14 20:36:00,
2013-07-14 16:39:00,85.8,70.3,30.12,SSE,147,0.0,2.0,60,0.00,,,0.00,Wunderground v.1.15,2013-07-14 20:39:00,
2013-07-14 16:40:00,86.0,69.0,30.12,SSE,147,0.0,0.0,57,0.00,,,0.00,Wunderground v.1.15,2013-07-14 20:40:00,
2013-07-14 16:42:00,86.2,69.7,30.12,SSE,147,0.0,0.0,58,0.00,,,0.00,Wunderground v.1.15,2013-07-14 20:42:00,
2013-07-14 16:45:00,86.8,69.2,30.11,SSW,195,1.0,4.0,56,0.00,,,0.00,Wunderground v.1.15,2013-07-14 20:45:00,
2013-07-14 16:46:00,86.8,69.7,30.11,SSW,195,1.0,4.0,57,0.00,,,0.00,Wunderground v.1.15,2013-07-14 20:46:00,
2013-07-14 16:51:00,86.2,69.2,30.11,South,191,0.0,0.0,57,0.00,,,0.00,Wunderground v.1.15,2013-07-14 20:51:00,
2013-07-14 16:53:00,86.2,69.2,30.11,South,191,0.0,0.0,57,0.00,,,0.00,Wunderground v.1.15,2013-07-14 20:53:00,
2013-07-14 16:55:00,86.2,69.2,30.11,South,191,0.0,0.0,57,0.00,,,0.00,Wunderground v.1.15,2013-07-14 20:55:00,
2013-07-14 16:58:00,86.6,70.1,30.11,South,191,0.0,0.0,58,0.00,,,0.00,Wunderground v.1.15,2013-07-14 20:58:00,
2013-07-14 17:00:00,86.8,70.2,30.11,South,191,0.0,0.0,58,0.00,,,0.00,Wunderground v.1.15,2013-07-14 21:00:00,
2013-07-14 17:03:00,86.8,69.2,30.11,South,191,0.0,0.0,56,0.00,,,0.00,Wunderground v.1.15,2013-07-14 21:03:00,
2013-07-14 17:05:00,87.2,69.6,30.11,South,191,0.0,0.0,56,0.00,,,0.00,Wunderground v.1.15,2013-07-14 21:05:00,
2013-07-14 17:06:00,87.5,69.9,30.11,South,191,0.0,0.0,56,0.00,,,0.00,Wunderground v.1.15,2013-07-14 21:06:00,
2013-07-14 17:07:00,87.5,69.9,30.11,South,191,0.0,0.0,56,0.00,,,0.00,Wunderground v.1.15,2013-07-14 21:07:00,
2013-07-14 17:08:00,87.7,69.5,30.11,South,191,0.0,0.0,55,0.00,,,0.00,Wunderground v.1.15,2013-07-14 21:08:00,
2013-07-14 17:11:00,87.7,69.0,30.11,South,191,0.0,0.0,54,0.00,,,0.00,Wunderground v.1.15,2013-07-14 21:11:00,
2013-07-14 17:14:00,87.7,69.5,30.11,South,191,0.0,0.0,55,0.00,,,0.00,Wunderground v.1.15,2013-07-14 21:14:00,
2013-07-14 17:15:00,87.9,69.7,30.11,South,191,0.0,0.0,55,0.00,,,0.00,Wunderground v.1.15,2013-07-14 21:15:00,
2013-07-14 17:18:00,87.9,69.2,30.11,South,191,0.0,0.0,54,0.00,,,0.00,Wunderground v.1.15,2013-07-14 21:18:00,
2013-07-14 17:19:00,87.9,69.7,30.11,South,191,0.0,0.0,55,0.00,,,0.00,Wunderground v.1.15,2013-07-14 21:19:00,
2013-07-14 17:21:00,88.1,69.4,30.11,South,191,0.0,0.0,54,0.00,,,0.00,Wunderground v.1.15,2013-07-14 21:21:00,
2013-07-14 17:23:00,88.3,70.6,30.11,South,191,0.0,0.0,56,0.00,,,0.00,Wunderground v.1.15,2013-07-14 21:23:00,
2013-07-14 17:24:00,88.5,70.3,30.11,South,191,0.0,0.0,55,0.00,,,0.00,Wunderground v.1.15,2013-07-14 21:24:00,
2013-07-14 17:26:00,88.7,69.9,30.11,South,191,0.0,0.0,54,0.00,,,0.00,Wunderground v.1.15,2013-07-14 21:26:00,
2013-07-14 17:27:00,88.7,69.9,30.11,South,191,0.0,0.0,54,0.00,,,0.00,Wunderground v.1.15,2013-07-14 21:27:00,
2013-07-14 17:28:00,88.7,69.4,30.11,South,191,0.0,0.0,53,0.00,,,0.00,Wunderground v.1.15,2013-07-14 21:28:00,
2013-07-14 17:30:00,88.7,69.4,30.11,South,191,0.0,0.0,53,0.00,,,0.00,Wunderground v.1.15,2013-07-14 21:30:00,
2013-07-14 17:31:00,88.7,69.4,30.11,South,191,0.0,0.0,53,0.00,,,0.00,Wunderground v.1.15,2013-07-14 21:31:00,
2013-07-14 17:33:00,88.7,69.9,30.11,South,191,0.0,0.0,54,0.00,,,0.00,Wunderground v.1.15,2013-07-14 21:33:00,
2013-07-14 17:36:00,88.5,70.3,30.11,South,191,0.0,0.0,55,0.00,,,0.00,Wunderground v.1.15,2013-07-14 21:36:00,
2013-07-14 17:37:00,88.5,70.3,30.11,South,191,0.0,0.0,55,0.00,,,0.00,Wunderground v.1.15,2013-07-14 21:37:00,
2013-07-14 17:41:00,88.3,69.5,30.11,South,191,0.0,0.0,54,0.00,,,0.00,Wunderground v.1.15,2013-07-14 21:41:00,
2013-07-14 17:42:00,88.3,69.5,30.11,South,191,0.0,0.0,54,0.00,,,0.00,Wunderground v.1.15,2013-07-14 21:42:00,
2013-07-14 17:43:00,88.3,69.5,30.11,South,191,0.0,0.0,54,0.00,,,0.00,Wunderground v.1.15,2013-07-14 21:43:00,
2013-07-14 17:47:00,88.1,69.4,30.11,South,191,0.0,1.0,54,0.00,,,0.00,Wunderground v.1.15,2013-07-14 21:47:00,
2013-07-14 17:48:00,88.1,69.4,30.11,South,191,0.0,1.0,54,0.00,,,0.00,Wunderground v.1.15,2013-07-14 21:48:00,
2013-07-14 17:49:00,88.1,69.9,30.11,South,191,0.0,1.0,55,0.00,,,0.00,Wunderground v.1.15,2013-07-14 21:49:00,
2013-07-14 17:55:00,88.5,69.7,30.11,South,191,0.0,0.0,54,0.00,,,0.00,Wunderground v.1.15,2013-07-14 21:55:00,
2013-07-14 17:56:00,88.5,69.7,30.11,South,191,0.0,0.0,54,0.00,,,0.00,Wunderground v.1.15,2013-07-14 21:56:00,
2013-07-14 17:57:00,88.5,69.7,30.11,South,191,0.0,0.0,54,0.00,,,0.00,Wunderground v.1.15,2013-07-14 21:57:00,
2013-07-14 17:58:00,88.5,69.7,30.11,South,191,0.0,0.0,54,0.00,,,0.00,Wunderground v.1.15,2013-07-14 21:58:00,
2013-07-14 18:00:00,88.7,69.9,30.11,SSW,196,0.0,0.0,54,0.00,,,0.00,Wunderground v.1.15,2013-07-14 22:00:00,
2013-07-14 18:04:00,88.9,70.1,30.11,SSW,198,0.0,0.0,54,0.00,,,0.00,Wunderground v.1.15,2013-07-14 22:04:00,
2013-07-14 18:05:00,88.9,70.6,30.11,SSW,198,0.0,0.0,55,0.00,,,0.00,Wunderground v.1.15,2013-07-14 22:05:00,
2013-07-14 18:06:00,88.9,70.6,30.11,SSW,198,0.0,0.0,55,0.00,,,0.00,Wunderground v.1.15,2013-07-14 22:06:00,
2013-07-14 18:07:00,88.9,70.6,30.11,SSW,198,0.0,0.0,55,0.00,,,0.00,Wunderground v.1.15,2013-07-14 22:07:00,
2013-07-14 18:09:00,88.9,69.6,30.11,SSW,198,0.0,0.0,53,0.00,,,0.00,Wunderground v.1.15,2013-07-14 22:09:00,
2013-07-14 18:10:00,88.7,69.4,30.11,SSW,198,0.0,0.0,53,0.00,,,0.00,Wunderground v.1.15,2013-07-14 22:10:00,
2013-07-14 18:14:00,88.7,69.9,30.11,SSW,198,0.0,0.0,54,0.00,,,0.00,Wunderground v.1.15,2013-07-14 22:14:00,
2013-07-14 18:15:00,88.7,69.9,30.11,SSW,198,0.0,0.0,54,0.00,,,0.00,Wunderground v.1.15,2013-07-14 22:15:00,
2013-07-14 18:16:00,88.7,69.9,30.11,SSW,198,0.0,0.0,54,0.00,,,0.00,Wunderground v.1.15,2013-07-14 22:16:00,
2013-07-14 18:17:00,88.7,69.9,30.11,SSW,198,0.0,3.0,54,0.00,,,0.00,Wunderground v.1.15,2013-07-14 22:17:00,
2013-07-14 18:22:00,88.3,70.6,30.11,South,188,1.0,2.0,56,0.00,,,0.00,Wunderground v.1.15,2013-07-14 22:22:00,
2013-07-14 18:23:00,88.1,69.9,30.11,South,188,1.0,3.0,55,0.00,,,0.00,Wunderground v.1.15,2013-07-14 22:23:00,
2013-07-14 18:24:00,88.1,69.4,30.11,South,188,1.0,3.0,54,0.00,,,0.00,Wunderground v.1.15,2013-07-14 22:24:00,
2013-07-14 18:28:00,87.7,69.0,30.11,South,188,1.0,3.0,54,0.00,,,0.00,Wunderground v.1.15,2013-07-14 22:28:00,
2013-07-14 18:29:00,87.7,69.5,30.11,South,188,1.0,3.0,55,0.00,,,0.00,Wunderground v.1.15,2013-07-14 22:29:00,
2013-07-14 18:30:00,87.5,69.9,30.10,South,188,1.0,1.0,56,0.00,,,0.00,Wunderground v.1.15,2013-07-14 22:30:00,
2013-07-14 18:32:00,87.5,69.9,30.10,South,188,1.0,1.0,56,0.00,,,0.00,Wunderground v.1.15,2013-07-14 22:32:00,
2013-07-14 18:33:00,87.5,70.4,30.10,South,188,0.0,1.0,57,0.00,,,0.00,Wunderground v.1.15,2013-07-14 22:33:00,
2013-07-14 18:35:00,87.5,70.4,30.10,South,188,0.0,1.0,57,0.00,,,0.00,Wunderground v.1.15,2013-07-14 22:35:00,
2013-07-14 18:36:00,87.5,69.9,30.10,South,188,0.0,1.0,56,0.00,,,0.00,Wunderground v.1.15,2013-07-14 22:36:00,
2013-07-14 18:37:00,87.5,69.9,30.10,South,188,0.0,1.0,56,0.00,,,0.00,Wunderground v.1.15,2013-07-14 22:37:00,
2013-07-14 18:39:00,87.5,70.4,30.10,South,188,0.0,1.0,57,0.00,,,0.00,Wunderground v.1.15,2013-07-14 22:39:00,
2013-07-14 18:41:00,87.7,70.1,30.10,South,188,0.0,0.0,56,0.00,,,0.00,Wunderground v.1.15,2013-07-14 22:41:00,
2013-07-14 18:42:00,87.7,70.1,30.10,South,188,0.0,0.0,56,0.00,,,0.00,Wunderground v.1.15,2013-07-14 22:42:00,
2013-07-14 18:44:00,87.7,69.5,30.10,South,188,0.0,0.0,55,0.00,,,0.00,Wunderground v.1.15,2013-07-14 22:44:00,
2013-07-14 18:45:00,87.7,70.6,30.10,South,188,0.0,0.0,57,0.00,,,0.00,Wunderground v.1.15,2013-07-14 22:45:00,
2013-07-14 18:46:00,87.7,69.5,30.10,South,188,0.0,0.0,55,0.00,,,0.00,Wunderground v.1.15,2013-07-14 22:46:00,
2013-07-14 18:48:00,87.7,69.5,30.10,South,188,0.0,0.0,55,0.00,,,0.00,Wunderground v.1.15,2013-07-14 22:48:00,
2013-07-14 18:51:00,87.7,69.5,30.10,South,188,0.0,0.0,55,0.00,,,0.00,Wunderground v.1.15,2013-07-14 22:51:00,
2013-07-14 18:52:00,87.7,69.5,30.10,South,188,0.0,0.0,55,0.00,,,0.00,Wunderground v.1.15,2013-07-14 22:52:00,
2013-07-14 18:56:00,87.7,69.5,30.10,South,188,0.0,0.0,55,0.00,,,0.00,Wunderground v.1.15,2013-07-14 22:56:00,
2013-07-14 18:57:00,87.7,70.1,30.10,South,188,0.0,0.0,56,0.00,,,0.00,Wunderground v.1.15,2013-07-14 22:57:00,
2013-07-14 18:58:00,87.9,69.7,30.10,South,188,0.0,0.0,55,0.00,,,0.00,Wunderground v.1.15,2013-07-14 22:58:00,
2013-07-14 19:01:00,87.9,70.8,30.10,South,188,0.0,0.0,57,0.00,,,0.00,Wunderground v.1.15,2013-07-14 23:01:00,
2013-07-14 19:02:00,87.9,70.8,30.10,South,186,0.0,0.0,57,0.00,,,0.00,Wunderground v.1.15,2013-07-14 23:02:00,
2013-07-14 19:03:00,87.9,70.2,30.10,South,186,0.0,0.0,56,0.00,,,0.00,Wunderground v.1.15,2013-07-14 23:03:00,
2013-07-14 19:04:00,87.9,70.2,30.10,South,188,0.0,0.0,56,0.00,,,0.00,Wunderground v.1.15,2013-07-14 23:04:00,
2013-07-14 19:09:00,87.9,69.7,30.10,South,186,0.0,0.0,55,0.00,,,0.00,Wunderground v.1.15,2013-07-14 23:09:00,
2013-07-14 19:10:00,87.9,70.2,30.10,South,188,0.0,0.0,56,0.00,,,0.00,Wunderground v.1.15,2013-07-14 23:10:00,
2013-07-14 19:12:00,87.9,70.8,30.10,South,188,0.0,0.0,57,0.00,,,0.00,Wunderground v.1.15,2013-07-14 23:12:00,
2013-07-14 19:13:00,87.9,71.3,30.10,South,188,0.0,0.0,58,0.00,,,0.00,Wunderground v.1.15,2013-07-14 23:13:00,
2013-07-14 19:17:00,88.1,71.5,30.09,South,188,0.0,0.0,58,0.00,,,0.00,Wunderground v.1.15,2013-07-14 23:17:00,
2013-07-14 19:18:00,87.9,71.3,30.09,South,188,0.0,2.0,58,0.00,,,0.00,Wunderground v.1.15,2013-07-14 23:18:00,
2013-07-14 19:23:00,87.7,70.6,30.09,South,188,0.0,1.0,57,0.00,,,0.00,Wunderground v.1.15,2013-07-14 23:23:00,
2013-07-14 19:24:00,87.7,71.1,30.09,South,188,0.0,1.0,58,0.00,,,0.00,Wunderground v.1.15,2013-07-14 23:24:00,
2013-07-14 19:25:00,87.7,71.1,30.09,South,188,0.0,1.0,58,0.00,,,0.00,Wunderground v.1.15,2013-07-14 23:25:00,
2013-07-14 19:26:00,87.7,71.1,30.09,South,188,0.0,1.0,58,0.00,,,0.00,Wunderground v.1.15,2013-07-14 23:26:00,
2013-07-14 19:27:00,87.7,71.6,30.09,South,188,0.0,1.0,59,0.00,,,0.00,Wunderground v.1.15,2013-07-14 23:27:00,
2013-07-14 19:30:00,87.7,71.6,30.10,South,188,0.0,0.0,59,0.00,,,0.00,Wunderground v.1.15,2013-07-14 23:30:00,
2013-07-14 19:31:00,87.7,71.1,30.10,South,188,0.0,0.0,58,0.00,,,0.00,Wunderground v.1.15,2013-07-14 23:31:00,
2013-07-14 19:33:00,87.5,70.9,30.10,South,188,0.0,0.0,58,0.00,,,0.00,Wunderground v.1.15,2013-07-14 23:33:00,
2013-07-14 19:35:00,87.5,70.9,30.10,South,186,0.0,0.0,58,0.00,,,0.00,Wunderground v.1.15,2013-07-14 23:35:00,
2013-07-14 19:36:00,87.5,70.9,30.10,South,188,0.0,0.0,58,0.00,,,0.00,Wunderground v.1.15,2013-07-14 23:36:00,
2013-07-14 19:38:00,87.5,70.9,30.10,South,188,0.0,0.0,58,0.00,,,0.00,Wunderground v.1.15,2013-07-14 23:38:00,
2013-07-14 19:39:00,87.5,70.9,30.10,South,188,0.0,0.0,58,0.00,,,0.00,Wunderground v.1.15,2013-07-14 23:39:00,
2013-07-14 19:40:00,87.5,70.9,30.10,South,188,0.0,0.0,58,0.00,,,0.00,Wunderground v.1.15,2013-07-14 23:40:00,
2013-07-14 19:41:00,87.5,71.4,30.10,South,188,0.0,0.0,59,0.00,,,0.00,Wunderground v.1.15,2013-07-14 23:41:00,
2013-07-14 19:43:00,87.5,70.9,30.10,South,188,0.0,0.0,58,0.00,,,0.00,Wunderground v.1.15,2013-07-14 23:43:00,
2013-07-14 19:45:00,87.5,71.9,30.10,South,188,0.0,0.0,60,0.00,,,0.00,Wunderground v.1.15,2013-07-14 23:45:00,
2013-07-14 19:46:00,87.5,71.9,30.10,South,186,0.0,0.0,60,0.00,,,0.00,Wunderground v.1.15,2013-07-14 23:46:00,
2013-07-14 19:47:00,87.5,71.4,30.10,South,188,0.0,0.0,59,0.00,,,0.00,Wunderground v.1.15,2013-07-14 23:47:00,
2013-07-14 19:48:00,87.5,71.4,30.10,South,188,0.0,0.0,59,0.00,,,0.00,Wunderground v.1.15,2013-07-14 23:48:00,
2013-07-14 19:52:00,87.2,71.1,30.10,South,186,0.0,0.0,59,0.00,,,0.00,Wunderground v.1.15,2013-07-14 23:52:00,
2013-07-14 19:54:00,87.2,71.6,30.10,South,188,0.0,0.0,60,0.00,,,0.00,Wunderground v.1.15,2013-07-14 23:54:00,
2013-07-14 19:58:00,87.0,71.4,30.10,South,186,0.0,0.0,60,0.00,,,0.00,Wunderground v.1.15,2013-07-14 23:58:00,
2013-07-14 20:01:00,87.0,71.4,30.11,South,188,0.0,0.0,60,0.00,,,0.00,Wunderground v.1.15,2013-07-15 00:01:00,
2013-07-14 20:03:00,87.0,70.9,30.11,South,188,0.0,0.0,59,0.00,,,0.00,Wunderground v.1.15,2013-07-15 00:03:00,
2013-07-14 20:04:00,87.0,71.4,30.11,South,188,0.0,0.0,60,0.00,,,0.00,Wunderground v.1.15,2013-07-15 00:04:00,
2013-07-14 20:05:00,87.0,71.4,30.11,South,186,0.0,0.0,60,0.00,,,0.00,Wunderground v.1.15,2013-07-15 00:05:00,
2013-07-14 20:07:00,87.0,70.9,30.11,South,188,0.0,0.0,59,0.00,,,0.00,Wunderground v.1.15,2013-07-15 00:07:00,
2013-07-14 20:10:00,87.0,71.4,30.11,South,188,0.0,0.0,60,0.00,,,0.00,Wunderground v.1.15,2013-07-15 00:10:00,
2013-07-14 20:12:00,87.0,71.4,30.11,South,188,0.0,0.0,60,0.00,,,0.00,Wunderground v.1.15,2013-07-15 00:12:00,
2013-07-14 20:13:00,87.0,71.4,30.11,South,188,0.0,0.0,60,0.00,,,0.00,Wunderground v.1.15,2013-07-15 00:13:00,
2013-07-14 20:15:00,87.0,70.9,30.11,South,188,0.0,0.0,59,0.00,,,0.00,Wunderground v.1.15,2013-07-15 00:15:00,
2013-07-14 20:18:00,87.0,71.4,30.11,South,186,0.0,0.0,60,0.00,,,0.00,Wunderground v.1.15,2013-07-15 00:18:00,
2013-07-14 20:20:00,87.0,71.9,30.11,South,188,0.0,0.0,61,0.00,,,0.00,Wunderground v.1.15,2013-07-15 00:20:00,
2013-07-14 20:21:00,87.0,71.9,30.11,South,188,0.0,0.0,61,0.00,,,0.00,Wunderground v.1.15,2013-07-15 00:21:00,
2013-07-14 20:24:00,87.0,72.4,30.11,South,186,0.0,0.0,62,0.00,,,0.00,Wunderground v.1.15,2013-07-15 00:24:00,
2013-07-14 20:26:00,87.0,72.9,30.11,South,186,0.0,0.0,63,0.00,,,0.00,Wunderground v.1.15,2013-07-15 00:26:00,
2013-07-14 20:29:00,87.0,73.3,30.11,South,186,0.0,0.0,64,0.00,,,0.00,Wunderground v.1.15,2013-07-15 00:29:00,
2013-07-14 20:30:00,87.0,73.8,30.11,South,188,0.0,0.0,65,0.00,,,0.00,Wunderground v.1.15,2013-07-15 00:30:00,
2013-07-14 20:33:00,87.0,73.8,30.11,South,188,0.0,0.0,65,0.00,,,0.00,Wunderground v.1.15,2013-07-15 00:33:00,
2013-07-14 20:35:00,86.8,73.6,30.11,South,188,0.0,0.0,65,0.00,,,0.00,Wunderground v.1.15,2013-07-15 00:35:00,
2013-07-14 20:36:00,86.8,73.6,30.11,South,188,0.0,0.0,65,0.00,,,0.00,Wunderground v.1.15,2013-07-15 00:36:00,
2013-07-14 20:39:00,86.4,73.7,30.11,South,188,0.0,0.0,66,0.00,,,0.00,Wunderground v.1.15,2013-07-15 00:39:00,
2013-07-14 20:40:00,86.2,74.0,30.11,South,188,0.0,0.0,67,0.00,,,0.00,Wunderground v.1.15,2013-07-15 00:40:00,
2013-07-14 20:44:00,85.6,73.8,30.11,South,188,0.0,0.0,68,0.00,,,0.00,Wunderground v.1.15,2013-07-15 00:44:00,
2013-07-14 20:45:00,85.4,74.1,30.12,South,188,0.0,0.0,69,0.00,,,0.00,Wunderground v.1.15,2013-07-15 00:45:00,
2013-07-14 20:49:00,85.0,74.5,30.12,South,188,0.0,0.0,71,0.00,,,0.00,Wunderground v.1.15,2013-07-15 00:49:00,
2013-07-14 20:51:00,84.8,74.3,30.12,South,189,0.0,0.0,71,0.00,,,0.00,Wunderground v.1.15,2013-07-15 00:51:00,
2013-07-14 20:52:00,84.8,74.3,30.12,SSW,212,0.0,0.0,71,0.00,,,0.00,Wunderground v.1.15,2013-07-15 00:52:00,
2013-07-14 20:57:00,84.6,74.2,30.12,SSW,193,0.0,0.0,71,0.00,,,0.00,Wunderground v.1.15,2013-07-15 00:57:00,
2013-07-14 20:58:00,84.6,74.2,30.12,SSW,203,0.0,0.0,71,0.00,,,0.00,Wunderground v.1.15,2013-07-15 00:58:00,
2013-07-14 20:59:00,84.6,74.2,30.12,SW,216,0.0,0.0,71,0.00,,,0.00,Wunderground v.1.15,2013-07-15 00:59:00,
2013-07-14 21:01:00,84.5,74.1,30.12,SSW,195,0.0,0.0,71,0.00,,,0.00,Wunderground v.1.15,2013-07-15 01:01:00,
2013-07-14 21:04:00,84.1,74.1,30.12,South,188,0.0,0.0,72,0.00,,,0.00,Wunderground v.1.15,2013-07-15 01:04:00,
2013-07-14 21:05:00,84.1,74.1,30.12,South,188,0.0,0.0,72,0.00,,,0.00,Wunderground v.1.15,2013-07-15 01:05:00,
2013-07-14 21:06:00,83.9,73.9,30.12,South,188,0.0,0.0,72,0.00,,,0.00,Wunderground v.1.15,2013-07-15 01:06:00,
2013-07-14 21:10:00,83.7,74.5,30.12,South,188,0.0,0.0,74,0.00,,,0.00,Wunderground v.1.15,2013-07-15 01:10:00,
2013-07-14 21:11:00,83.5,74.3,30.12,South,188,0.0,0.0,74,0.00,,,0.00,Wunderground v.1.15,2013-07-15 01:11:00,
2013-07-14 21:15:00,83.3,74.1,30.12,South,188,0.0,0.0,74,0.00,,,0.00,Wunderground v.1.15,2013-07-15 01:15:00,
2013-07-14 21:16:00,83.1,73.9,30.12,South,188,0.0,0.0,74,0.00,,,0.00,Wunderground v.1.15,2013-07-15 01:16:00,
2013-07-14 21:17:00,83.1,74.4,30.12,South,188,0.0,0.0,75,0.00,,,0.00,Wunderground v.1.15,2013-07-15 01:17:00,
2013-07-14 21:19:00,82.9,74.2,30.12,South,188,0.0,0.0,75,0.00,,,0.00,Wunderground v.1.15,2013-07-15 01:19:00,
2013-07-14 21:21:00,82.7,74.4,30.12,South,188,0.0,0.0,76,0.00,,,0.00,Wunderground v.1.15,2013-07-15 01:21:00,
2013-07-14 21:24:00,82.5,74.2,30.12,South,188,0.0,0.0,76,0.00,,,0.00,Wunderground v.1.15,2013-07-15 01:24:00,
2013-07-14 21:25:00,82.5,74.2,30.12,South,188,0.0,0.0,76,0.00,,,0.00,Wunderground v.1.15,2013-07-15 01:25:00,
2013-07-14 21:27:00,82.3,74.0,30.12,South,188,0.0,0.0,76,0.00,,,0.00,Wunderground v.1.15,2013-07-15 01:27:00,
2013-07-14 21:28:00,82.1,73.8,30.12,South,188,0.0,0.0,76,0.00,,,0.00,Wunderground v.1.15,2013-07-15 01:28:00,
2013-07-14 21:32:00,81.9,73.6,30.13,South,188,0.0,0.0,76,0.00,,,0.00,Wunderground v.1.15,2013-07-15 01:32:00,
2013-07-14 21:33:00,81.7,73.8,30.13,South,188,0.0,0.0,77,0.00,,,0.00,Wunderground v.1.15,2013-07-15 01:33:00,
2013-07-14 21:36:00,81.6,73.7,30.13,South,188,0.0,0.0,77,0.00,,,0.00,Wunderground v.1.15,2013-07-15 01:36:00,
2013-07-14 21:37:00,81.6,73.7,30.13,South,188,0.0,0.0,77,0.00,,,0.00,Wunderground v.1.15,2013-07-15 01:37:00,
2013-07-14 21:39:00,81.4,73.5,30.13,South,188,0.0,0.0,77,0.00,,,0.00,Wunderground v.1.15,2013-07-15 01:39:00,
2013-07-14 21:41:00,81.4,73.5,30.13,South,188,0.0,0.0,77,0.00,,,0.00,Wunderground v.1.15,2013-07-15 01:41:00,
2013-07-14 21:42:00,81.2,73.3,30.13,South,188,0.0,0.0,77,0.00,,,0.00,Wunderground v.1.15,2013-07-15 01:42:00,
2013-07-14 21:43:00,81.2,73.3,30.13,South,188,0.0,0.0,77,0.00,,,0.00,Wunderground v.1.15,2013-07-15 01:43:00,
2013-07-14 21:45:00,81.2,73.3,30.13,South,188,0.0,0.0,77,0.00,,,0.00,Wunderground v.1.15,2013-07-15 01:45:00,
2013-07-14 21:46:00,81.0,73.5,30.13,South,188,0.0,0.0,78,0.00,,,0.00,Wunderground v.1.15,2013-07-15 01:46:00,
2013-07-14 21:51:00,81.0,73.5,30.13,South,188,0.0,0.0,78,0.00,,,0.00,Wunderground v.1.15,2013-07-15 01:51:00,
2013-07-14 21:52:00,80.8,73.3,30.13,South,188,0.0,0.0,78,0.00,,,0.00,Wunderground v.1.15,2013-07-15 01:52:00,
2013-07-14 21:53:00,80.8,73.3,30.13,South,188,0.0,0.0,78,0.00,,,0.00,Wunderground v.1.15,2013-07-15 01:53:00,
2013-07-14 21:57:00,80.8,73.7,30.13,South,188,0.0,0.0,79,0.00,,,0.00,Wunderground v.1.15,2013-07-15 01:57:00,
2013-07-14 21:58:00,80.6,73.5,30.13,South,188,0.0,0.0,79,0.00,,,0.00,Wunderground v.1.15,2013-07-15 01:58:00,
2013-07-14 22:00:00,80.6,73.9,30.14,South,188,0.0,0.0,80,0.00,,,0.00,Wunderground v.1.15,2013-07-15 02:00:00,
2013-07-14 22:03:00,80.4,73.7,30.14,South,188,0.0,0.0,80,0.00,,,0.00,Wunderground v.1.15,2013-07-15 02:03:00,
2013-07-14 22:04:00,80.3,73.9,30.14,South,188,0.0,0.0,81,0.00,,,0.00,Wunderground v.1.15,2013-07-15 02:04:00,
2013-07-14 22:06:00,80.1,73.7,30.14,South,188,0.0,0.0,81,0.00,,,0.00,Wunderground v.1.15,2013-07-15 02:06:00,
2013-07-14 22:07:00,80.1,73.7,30.14,South,188,0.0,0.0,81,0.00,,,0.00,Wunderground v.1.15,2013-07-15 02:07:00,
2013-07-14 22:08:00,80.1,73.7,30.14,South,188,0.0,0.0,81,0.00,,,0.00,Wunderground v.1.15,2013-07-15 02:08:00,
2013-07-14 22:10:00,79.9,73.5,30.14,South,188,0.0,0.0,81,0.00,,,0.00,Wunderground v.1.15,2013-07-15 02:10:00,
2013-07-14 22:11:00,79.9,73.9,30.14,South,188,0.0,0.0,82,0.00,,,0.00,Wunderground v.1.15,2013-07-15 02:11:00,
2013-07-14 22:15:00,79.3,73.7,30.15,SSE,157,0.0,2.0,83,0.00,,,0.00,Wunderground v.1.15,2013-07-15 02:15:00,
2013-07-14 22:16:00,79.1,73.5,30.15,SE,127,0.0,3.0,83,0.00,,,0.00,Wunderground v.1.15,2013-07-15 02:16:00,
2013-07-14 22:17:00,79.1,73.5,30.15,SE,127,1.0,3.0,83,0.00,,,0.00,Wunderground v.1.15,2013-07-15 02:17:00,
2013-07-14 22:20:00,78.8,73.2,30.15,SE,127,1.0,2.0,83,0.00,,,0.00,Wunderground v.1.15,2013-07-15 02:20:00,
2013-07-14 22:21:00,78.6,73.4,30.15,SE,127,1.0,2.0,84,0.00,,,0.00,Wunderground v.1.15,2013-07-15 02:21:00,
2013-07-14 22:23:00,78.4,73.2,30.15,SE,127,1.0,2.0,84,0.00,,,0.00,Wunderground v.1.15,2013-07-15 02:23:00,
2013-07-14 22:24:00,78.2,73.3,30.15,SE,127,1.0,2.0,85,0.00,,,0.00,Wunderground v.1.15,2013-07-15 02:24:00,
2013-07-14 22:26:00,78.1,73.2,30.15,SE,128,1.0,2.0,85,0.00,,,0.00,Wunderground v.1.15,2013-07-15 02:26:00,
2013-07-14 22:28:00,77.9,73.4,30.15,SE,128,1.0,2.0,86,0.00,,,0.00,Wunderground v.1.15,2013-07-15 02:28:00,
2013-07-14 22:29:00,77.9,73.4,30.15,SE,128,0.0,2.0,86,0.00,,,0.00,Wunderground v.1.15,2013-07-15 02:29:00,
2013-07-14 22:31:00,77.7,73.2,30.17,SE,128,0.0,0.0,86,0.46,,,0.02,Wunderground v.1.15,2013-07-15 02:31:00,
2013-07-14 22:33:00,77.5,73.3,30.17,SE,128,0.0,0.0,87,0.55,,,0.04,Wunderground v.1.15,2013-07-15 02:33:00,
2013-07-14 22:36:00,77.2,73.0,30.17,SE,128,0.0,0.0,87,0.23,,,0.05,Wunderground v.1.15,2013-07-15 02:36:00,
2013-07-14 22:37:00,77.2,73.4,30.17,SE,128,0.0,0.0,88,0.18,,,0.05,Wunderground v.1.15,2013-07-15 02:37:00,
2013-07-14 22:38:00,77.2,73.4,30.17,SE,128,0.0,0.0,88,0.14,,,0.05,Wunderground v.1.15,2013-07-15 02:38:00,
2013-07-14 22:39:00,77.0,73.2,30.17,SE,128,0.0,0.0,88,0.14,,,0.06,Wunderground v.1.15,2013-07-15 02:39:00,
2013-07-14 22:40:00,77.0,73.2,30.17,SE,128,0.0,0.0,88,0.14,,,0.06,Wunderground v.1.15,2013-07-15 02:40:00,
2013-07-14 22:43:00,77.0,73.2,30.17,SE,128,0.0,0.0,88,0.12,,,0.06,Wunderground v.1.15,2013-07-15 02:43:00,
2013-07-14 22:44:00,76.8,73.0,30.17,SE,128,0.0,0.0,88,0.10,,,0.06,Wunderground v.1.15,2013-07-15 02:44:00,
2013-07-14 22:45:00,76.8,73.0,30.17,SE,128,0.0,0.0,88,0.09,,,0.06,Wunderground v.1.15,2013-07-15 02:45:00,
2013-07-14 22:46:00,76.8,73.0,30.17,SE,128,0.0,0.0,88,0.07,,,0.06,Wunderground v.1.15,2013-07-15 02:46:00,
2013-07-14 22:49:00,76.6,72.8,30.17,SE,128,0.0,0.0,88,0.06,,,0.06,Wunderground v.1.15,2013-07-15 02:49:00,
2013-07-14 22:50:00,76.6,72.8,30.17,SE,128,0.0,0.0,88,0.05,,,0.06,Wunderground v.1.15,2013-07-15 02:50:00,
2013-07-14 22:51:00,76.6,72.8,30.17,SE,128,0.0,0.0,88,0.05,,,0.06,Wunderground v.1.15,2013-07-15 02:51:00,
2013-07-14 22:55:00,76.5,73.0,30.17,SE,128,0.0,0.0,89,0.00,,,0.06,Wunderground v.1.15,2013-07-15 02:55:00,
2013-07-14 22:56:00,76.5,73.0,30.17,SE,128,0.0,0.0,89,0.00,,,0.06,Wunderground v.1.15,2013-07-15 02:56:00,
2013-07-14 23:00:00,76.3,72.8,30.16,SE,128,0.0,0.0,89,0.00,,,0.06,Wunderground v.1.15,2013-07-15 03:00:00,
2013-07-14 23:02:00,76.3,72.8,30.16,SE,128,0.0,0.0,89,0.00,,,0.06,Wunderground v.1.15,2013-07-15 03:02:00,
2013-07-14 23:04:00,76.3,72.8,30.16,SE,128,0.0,0.0,89,0.00,,,0.06,Wunderground v.1.15,2013-07-15 03:04:00,
2013-07-14 23:06:00,76.1,72.6,30.16,SE,128,0.0,0.0,89,0.00,,,0.06,Wunderground v.1.15,2013-07-15 03:06:00,
2013-07-14 23:07:00,76.1,73.0,30.16,SE,128,0.0,0.0,90,0.00,,,0.06,Wunderground v.1.15,2013-07-15 03:07:00,
2013-07-14 23:09:00,75.9,72.8,30.16,SE,128,0.0,0.0,90,0.00,,,0.06,Wunderground v.1.15,2013-07-15 03:09:00,
2013-07-14 23:10:00,75.9,72.8,30.16,SE,128,0.0,0.0,90,0.00,,,0.06,Wunderground v.1.15,2013-07-15 03:10:00,
2013-07-14 23:14:00,75.9,72.8,30.16,SE,128,0.0,0.0,90,0.00,,,0.06,Wunderground v.1.15,2013-07-15 03:14:00,
2013-07-14 23:15:00,75.9,72.8,30.16,SE,128,0.0,0.0,90,0.00,,,0.06,Wunderground v.1.15,2013-07-15 03:15:00,
2013-07-14 23:16:00,75.9,72.8,30.16,SE,128,0.0,0.0,90,0.00,,,0.06,Wunderground v.1.15,2013-07-15 03:16:00,
2013-07-14 23:17:00,75.9,72.8,30.16,SE,128,0.0,0.0,90,0.00,,,0.06,Wunderground v.1.15,2013-07-15 03:17:00,
2013-07-14 23:19:00,75.9,73.1,30.16,SE,128,0.0,0.0,91,0.00,,,0.06,Wunderground v.1.15,2013-07-15 03:19:00,
2013-07-14 23:20:00,75.8,73.0,30.16,SE,128,0.0,0.0,91,0.00,,,0.06,Wunderground v.1.15,2013-07-15 03:20:00,
2013-07-14 23:22:00,75.8,73.0,30.16,SE,128,0.0,0.0,91,0.00,,,0.06,Wunderground v.1.15,2013-07-15 03:22:00,
2013-07-14 23:27:00,75.8,73.0,30.16,SE,128,0.0,0.0,91,0.00,,,0.06,Wunderground v.1.15,2013-07-15 03:27:00,
2013-07-14 23:28:00,75.8,73.0,30.16,SE,128,0.0,0.0,91,0.00,,,0.06,Wunderground v.1.15,2013-07-15 03:28:00,
2013-07-14 23:29:00,75.8,73.0,30.16,SE,128,0.0,0.0,91,0.00,,,0.06,Wunderground v.1.15,2013-07-15 03:29:00,
2013-07-14 23:30:00,75.8,73.0,30.16,SE,128,0.0,0.0,91,0.00,,,0.06,Wunderground v.1.15,2013-07-15 03:30:00,
2013-07-14 23:33:00,75.6,72.8,30.16,SE,128,0.0,0.0,91,0.00,,,0.06,Wunderground v.1.15,2013-07-15 03:33:00,
2013-07-14 23:34:00,75.6,72.8,30.16,SE,128,0.0,0.0,91,0.00,,,0.06,Wunderground v.1.15,2013-07-15 03:34:00,
2013-07-14 23:35:00,75.6,72.8,30.16,SE,128,0.0,0.0,91,0.00,,,0.06,Wunderground v.1.15,2013-07-15 03:35:00,
2013-07-14 23:37:00,75.6,72.8,30.16,SE,128,0.0,0.0,91,0.00,,,0.06,Wunderground v.1.15,2013-07-15 03:37:00,
2013-07-14 23:39:00,75.6,72.8,30.16,SE,128,0.0,0.0,91,0.00,,,0.06,Wunderground v.1.15,2013-07-15 03:39:00,
2013-07-14 23:41:00,75.6,72.8,30.16,SE,128,0.0,0.0,91,0.00,,,0.06,Wunderground v.1.15,2013-07-15 03:41:00,
2013-07-14 23:42:00,75.6,72.8,30.16,SE,128,0.0,0.0,91,0.00,,,0.06,Wunderground v.1.15,2013-07-15 03:42:00,
2013-07-14 23:45:00,75.4,72.6,30.16,SE,128,0.0,0.0,91,0.00,,,0.06,Wunderground v.1.15,2013-07-15 03:45:00,
2013-07-14 23:49:00,75.4,72.6,30.16,SE,128,0.0,0.0,91,0.00,,,0.06,Wunderground v.1.15,2013-07-15 03:49:00,
2013-07-14 23:51:00,75.4,72.6,30.16,SE,128,0.0,0.0,91,0.00,,,0.06,Wunderground v.1.15,2013-07-15 03:51:00,
2013-07-14 23:53:00,75.2,72.4,30.16,SE,128,0.0,0.0,91,0.00,,,0.06,Wunderground v.1.15,2013-07-15 03:53:00,
2013-07-14 23:54:00,75.2,72.4,30.16,SE,128,0.0,0.0,91,0.00,,,0.06,Wunderground v.1.15,2013-07-15 03:54:00,
2013-07-14 23:55:00,75.2,72.4,30.16,SE,128,0.0,0.0,91,0.00,,,0.06,Wunderground v.1.15,2013-07-15 03:55:00,
2013-07-14 23:59:00,75.2,72.7,30.16,SE,128,0.0,0.0,92,0.00,,,0.06,Wunderground v.1.15,2013-07-15 03:59:00,